<?xml version="1.0" encoding="UTF-8" standalone="no" ?>
<gpx xmlns="http://www.topografix.com/GPX/1/1" xmlns:xsi="http://www.w3.org/2001/XMLSchema-instance" xsi:schemaLocation="http://www.topografix.com/GPX/1/1 http://www.topografix.com/GPX/1/1/gpx.xsd" version="1.1" creator="VisuGPX - https://www.visugpx.com">
  <metadata>
    <name>Circuits VTT Gréolière</name>
    <desc><![CDATA[Nouveaux circuits VTT de Gréolière]]></desc>
  </metadata>
  <trk>
    <name><![CDATA[Circuits VTT Gréolière_1]]></name>
    <trkseg>
      <trkpt lat="43.82957" lon="6.96666">
        <ele>1399.33618</ele>
        <time>2012-08-15T12:45:44+02:00</time>
      </trkpt>
      <trkpt lat="43.82962" lon="6.96676">
        <ele>1399.33618</ele>
        <time>2012-08-15T12:45:49+02:00</time>
      </trkpt>
      <trkpt lat="43.82968" lon="6.96681">
        <ele>1399.33618</ele>
        <time>2012-08-15T12:45:52+02:00</time>
      </trkpt>
      <trkpt lat="43.82973" lon="6.967">
        <ele>1398.85547</ele>
        <time>2012-08-15T12:45:56+02:00</time>
      </trkpt>
      <trkpt lat="43.82983" lon="6.96749">
        <ele>1396.45239</ele>
        <time>2012-08-15T12:46:03+02:00</time>
      </trkpt>
      <trkpt lat="43.82985" lon="6.96758">
        <ele>1396.45239</ele>
        <time>2012-08-15T12:46:04+02:00</time>
      </trkpt>
      <trkpt lat="43.82989" lon="6.96798">
        <ele>1395.01025</ele>
        <time>2012-08-15T12:46:08+02:00</time>
      </trkpt>
      <trkpt lat="43.82989" lon="6.96828">
        <ele>1395.01025</ele>
        <time>2012-08-15T12:46:11+02:00</time>
      </trkpt>
      <trkpt lat="43.82995" lon="6.96889">
        <ele>1394.52954</ele>
        <time>2012-08-15T12:46:18+02:00</time>
      </trkpt>
      <trkpt lat="43.83001" lon="6.96946">
        <ele>1394.52954</ele>
        <time>2012-08-15T12:46:25+02:00</time>
      </trkpt>
      <trkpt lat="43.83009" lon="6.97011">
        <ele>1394.52954</ele>
        <time>2012-08-15T12:46:34+02:00</time>
      </trkpt>
      <trkpt lat="43.83011" lon="6.97057">
        <ele>1395.49097</ele>
        <time>2012-08-15T12:46:41+02:00</time>
      </trkpt>
      <trkpt lat="43.83011" lon="6.97117">
        <ele>1396.93286</ele>
        <time>2012-08-15T12:46:51+02:00</time>
      </trkpt>
      <trkpt lat="43.83009" lon="6.97166">
        <ele>1398.85547</ele>
        <time>2012-08-15T12:47:00+02:00</time>
      </trkpt>
      <trkpt lat="43.83008" lon="6.97208">
        <ele>1401.25879</ele>
        <time>2012-08-15T12:47:09+02:00</time>
      </trkpt>
      <trkpt lat="43.83008" lon="6.97216">
        <ele>1401.7395</ele>
        <time>2012-08-15T12:47:11+02:00</time>
      </trkpt>
      <trkpt lat="43.83001" lon="6.97227">
        <ele>1402.70068</ele>
        <time>2012-08-15T12:47:15+02:00</time>
      </trkpt>
      <trkpt lat="43.82987" lon="6.97237">
        <ele>1403.1814</ele>
        <time>2012-08-15T12:47:21+02:00</time>
      </trkpt>
      <trkpt lat="43.82974" lon="6.97253">
        <ele>1405.10425</ele>
        <time>2012-08-15T12:47:28+02:00</time>
      </trkpt>
      <trkpt lat="43.82962" lon="6.97279">
        <ele>1406.06543</ele>
        <time>2012-08-15T12:47:37+02:00</time>
      </trkpt>
      <trkpt lat="43.82956" lon="6.97305">
        <ele>1407.50757</ele>
        <time>2012-08-15T12:47:45+02:00</time>
      </trkpt>
      <trkpt lat="43.82957" lon="6.97336">
        <ele>1408.94946</ele>
        <time>2012-08-15T12:47:54+02:00</time>
      </trkpt>
      <trkpt lat="43.82962" lon="6.97365">
        <ele>1410.87207</ele>
        <time>2012-08-15T12:48:02+02:00</time>
      </trkpt>
      <trkpt lat="43.82971" lon="6.97381">
        <ele>1411.35278</ele>
        <time>2012-08-15T12:48:07+02:00</time>
      </trkpt>
      <trkpt lat="43.82988" lon="6.97396">
        <ele>1413.27539</ele>
        <time>2012-08-15T12:48:14+02:00</time>
      </trkpt>
      <trkpt lat="43.83008" lon="6.97404">
        <ele>1415.67871</ele>
        <time>2012-08-15T12:48:21+02:00</time>
      </trkpt>
      <trkpt lat="43.83028" lon="6.97402">
        <ele>1418.5625</ele>
        <time>2012-08-15T12:48:28+02:00</time>
      </trkpt>
      <trkpt lat="43.83046" lon="6.97392">
        <ele>1420.48535</ele>
        <time>2012-08-15T12:48:35+02:00</time>
      </trkpt>
      <trkpt lat="43.83062" lon="6.97379">
        <ele>1422.40796</ele>
        <time>2012-08-15T12:48:42+02:00</time>
      </trkpt>
      <trkpt lat="43.83074" lon="6.97371">
        <ele>1423.36938</ele>
        <time>2012-08-15T12:48:47+02:00</time>
      </trkpt>
      <trkpt lat="43.83095" lon="6.97357">
        <ele>1425.77246</ele>
        <time>2012-08-15T12:48:56+02:00</time>
      </trkpt>
      <trkpt lat="43.83113" lon="6.97345">
        <ele>1428.65649</ele>
        <time>2012-08-15T12:49:04+02:00</time>
      </trkpt>
      <trkpt lat="43.83135" lon="6.97327">
        <ele>1432.50171</ele>
        <time>2012-08-15T12:49:14+02:00</time>
      </trkpt>
      <trkpt lat="43.83143" lon="6.97322">
        <ele>1432.98218</ele>
        <time>2012-08-15T12:49:19+02:00</time>
      </trkpt>
      <trkpt lat="43.83144" lon="6.97321">
        <ele>1432.98218</ele>
        <time>2012-08-15T12:49:20+02:00</time>
      </trkpt>
      <trkpt lat="43.83153" lon="6.97324">
        <ele>1436.34717</ele>
        <time>2012-08-15T12:49:26+02:00</time>
      </trkpt>
      <trkpt lat="43.83164" lon="6.97317">
        <ele>1436.82764</ele>
        <time>2012-08-15T12:49:33+02:00</time>
      </trkpt>
      <trkpt lat="43.83167" lon="6.97317">
        <ele>1438.75049</ele>
        <time>2012-08-15T12:49:36+02:00</time>
      </trkpt>
      <trkpt lat="43.83173" lon="6.97325">
        <ele>1442.11499</ele>
        <time>2012-08-15T12:49:42+02:00</time>
      </trkpt>
      <trkpt lat="43.83179" lon="6.97338">
        <ele>1442.11499</ele>
        <time>2012-08-15T12:49:52+02:00</time>
      </trkpt>
      <trkpt lat="43.83185" lon="6.97344">
        <ele>1447.4021</ele>
        <time>2012-08-15T12:49:58+02:00</time>
      </trkpt>
      <trkpt lat="43.83187" lon="6.97343">
        <ele>1447.4021</ele>
        <time>2012-08-15T12:50:01+02:00</time>
      </trkpt>
      <trkpt lat="43.83189" lon="6.97346">
        <ele>1448.84399</ele>
        <time>2012-08-15T12:50:07+02:00</time>
      </trkpt>
      <trkpt lat="43.83193" lon="6.97354">
        <ele>1451.24731</ele>
        <time>2012-08-15T12:50:14+02:00</time>
      </trkpt>
      <trkpt lat="43.83197" lon="6.97361">
        <ele>1451.24731</ele>
        <time>2012-08-15T12:50:19+02:00</time>
      </trkpt>
      <trkpt lat="43.83201" lon="6.97368">
        <ele>1451.24731</ele>
        <time>2012-08-15T12:50:24+02:00</time>
      </trkpt>
      <trkpt lat="43.83204" lon="6.97379">
        <ele>1449.80542</ele>
        <time>2012-08-15T12:50:30+02:00</time>
      </trkpt>
      <trkpt lat="43.83207" lon="6.97395">
        <ele>1449.32471</ele>
        <time>2012-08-15T12:50:37+02:00</time>
      </trkpt>
      <trkpt lat="43.83215" lon="6.9741">
        <ele>1447.88281</ele>
        <time>2012-08-15T12:50:43+02:00</time>
      </trkpt>
      <trkpt lat="43.83224" lon="6.97426">
        <ele>1448.84399</ele>
        <time>2012-08-15T12:50:49+02:00</time>
      </trkpt>
      <trkpt lat="43.83237" lon="6.97444">
        <ele>1447.88281</ele>
        <time>2012-08-15T12:50:56+02:00</time>
      </trkpt>
      <trkpt lat="43.83245" lon="6.97462">
        <ele>1448.36328</ele>
        <time>2012-08-15T12:51:01+02:00</time>
      </trkpt>
      <trkpt lat="43.83249" lon="6.97484">
        <ele>1449.80542</ele>
        <time>2012-08-15T12:51:07+02:00</time>
      </trkpt>
      <trkpt lat="43.83252" lon="6.97499">
        <ele>1451.24731</ele>
        <time>2012-08-15T12:51:13+02:00</time>
      </trkpt>
      <trkpt lat="43.83261" lon="6.97514">
        <ele>1448.36328</ele>
        <time>2012-08-15T12:51:19+02:00</time>
      </trkpt>
      <trkpt lat="43.83276" lon="6.97534">
        <ele>1444.51807</ele>
        <time>2012-08-15T12:51:23+02:00</time>
      </trkpt>
      <trkpt lat="43.83293" lon="6.97573">
        <ele>1442.5957</ele>
        <time>2012-08-15T12:51:27+02:00</time>
      </trkpt>
      <trkpt lat="43.83305" lon="6.97602">
        <ele>1440.67285</ele>
        <time>2012-08-15T12:51:30+02:00</time>
      </trkpt>
      <trkpt lat="43.83313" lon="6.9762">
        <ele>1438.75049</ele>
        <time>2012-08-15T12:51:32+02:00</time>
      </trkpt>
      <trkpt lat="43.83322" lon="6.97635">
        <ele>1435.86621</ele>
        <time>2012-08-15T12:51:34+02:00</time>
      </trkpt>
      <trkpt lat="43.83332" lon="6.97667">
        <ele>1431.05981</ele>
        <time>2012-08-15T12:51:38+02:00</time>
      </trkpt>
      <trkpt lat="43.83335" lon="6.97692">
        <ele>1425.77246</ele>
        <time>2012-08-15T12:51:42+02:00</time>
      </trkpt>
      <trkpt lat="43.83341" lon="6.97712">
        <ele>1422.40796</ele>
        <time>2012-08-15T12:51:45+02:00</time>
      </trkpt>
      <trkpt lat="43.83356" lon="6.97744">
        <ele>1414.23657</ele>
        <time>2012-08-15T12:51:50+02:00</time>
      </trkpt>
      <trkpt lat="43.83365" lon="6.9777">
        <ele>1410.87207</ele>
        <time>2012-08-15T12:51:53+02:00</time>
      </trkpt>
      <trkpt lat="43.8337" lon="6.97783">
        <ele>1409.91064</ele>
        <time>2012-08-15T12:51:55+02:00</time>
      </trkpt>
      <trkpt lat="43.83373" lon="6.97804">
        <ele>1407.50757</ele>
        <time>2012-08-15T12:51:59+02:00</time>
      </trkpt>
      <trkpt lat="43.83374" lon="6.97822">
        <ele>1402.21997</ele>
        <time>2012-08-15T12:52:02+02:00</time>
      </trkpt>
      <trkpt lat="43.83377" lon="6.97858">
        <ele>1396.93286</ele>
        <time>2012-08-15T12:52:07+02:00</time>
      </trkpt>
      <trkpt lat="43.83387" lon="6.97891">
        <ele>1390.68433</ele>
        <time>2012-08-15T12:52:11+02:00</time>
      </trkpt>
      <trkpt lat="43.83406" lon="6.97922">
        <ele>1383.95508</ele>
        <time>2012-08-15T12:52:15+02:00</time>
      </trkpt>
      <trkpt lat="43.83416" lon="6.97938">
        <ele>1382.03247</ele>
        <time>2012-08-15T12:52:17+02:00</time>
      </trkpt>
      <trkpt lat="43.83433" lon="6.97962">
        <ele>1377.70654</ele>
        <time>2012-08-15T12:52:22+02:00</time>
      </trkpt>
      <trkpt lat="43.83433" lon="6.97961">
        <ele>1374.34204</ele>
        <time>2012-08-15T12:52:26+02:00</time>
      </trkpt>
      <trkpt lat="43.83436" lon="6.97957">
        <ele>1371.93848</ele>
        <time>2012-08-15T12:52:41+02:00</time>
      </trkpt>
      <trkpt lat="43.83437" lon="6.97961">
        <ele>1370.97729</ele>
        <time>2012-08-15T12:52:47+02:00</time>
      </trkpt>
      <trkpt lat="43.83437" lon="6.97959">
        <ele>1371.93848</ele>
        <time>2012-08-15T12:52:54+02:00</time>
      </trkpt>
      <trkpt lat="43.83435" lon="6.97957">
        <ele>1376.26465</ele>
        <time>2012-08-15T12:53:01+02:00</time>
      </trkpt>
      <trkpt lat="43.83434" lon="6.97959">
        <ele>1377.70654</ele>
        <time>2012-08-15T12:53:19+02:00</time>
      </trkpt>
      <trkpt lat="43.83433" lon="6.97958">
        <ele>1376.26465</ele>
        <time>2012-08-15T12:53:32+02:00</time>
      </trkpt>
      <trkpt lat="43.83432" lon="6.97955">
        <ele>1377.22607</ele>
        <time>2012-08-15T12:53:38+02:00</time>
      </trkpt>
      <trkpt lat="43.83434" lon="6.97941">
        <ele>1377.70654</ele>
        <time>2012-08-15T12:53:44+02:00</time>
      </trkpt>
      <trkpt lat="43.83433" lon="6.97939">
        <ele>1379.14844</ele>
        <time>2012-08-15T12:53:48+02:00</time>
      </trkpt>
      <trkpt lat="43.83433" lon="6.97932">
        <ele>1384.43579</ele>
        <time>2012-08-15T12:53:59+02:00</time>
      </trkpt>
      <trkpt lat="43.8343" lon="6.97927">
        <ele>1386.3584</ele>
        <time>2012-08-15T12:54:03+02:00</time>
      </trkpt>
      <trkpt lat="43.83424" lon="6.97918">
        <ele>1388.28125</ele>
        <time>2012-08-15T12:54:09+02:00</time>
      </trkpt>
      <trkpt lat="43.83421" lon="6.97912">
        <ele>1388.76196</ele>
        <time>2012-08-15T12:54:13+02:00</time>
      </trkpt>
      <trkpt lat="43.83419" lon="6.97907">
        <ele>1389.72314</ele>
        <time>2012-08-15T12:54:16+02:00</time>
      </trkpt>
      <trkpt lat="43.83416" lon="6.97902">
        <ele>1389.24243</ele>
        <time>2012-08-15T12:54:20+02:00</time>
      </trkpt>
      <trkpt lat="43.83415" lon="6.97898">
        <ele>1389.24243</ele>
        <time>2012-08-15T12:54:22+02:00</time>
      </trkpt>
      <trkpt lat="43.83418" lon="6.97895">
        <ele>1389.24243</ele>
        <time>2012-08-15T12:54:27+02:00</time>
      </trkpt>
      <trkpt lat="43.83425" lon="6.9789">
        <ele>1391.16504</ele>
        <time>2012-08-15T12:54:33+02:00</time>
      </trkpt>
      <trkpt lat="43.83434" lon="6.97897">
        <ele>1391.64575</ele>
        <time>2012-08-15T12:54:37+02:00</time>
      </trkpt>
      <trkpt lat="43.83436" lon="6.97899">
        <ele>1391.64575</ele>
        <time>2012-08-15T12:54:38+02:00</time>
      </trkpt>
      <trkpt lat="43.8346" lon="6.97912">
        <ele>1389.72314</ele>
        <time>2012-08-15T12:54:44+02:00</time>
      </trkpt>
      <trkpt lat="43.83469" lon="6.97918">
        <ele>1388.28125</ele>
        <time>2012-08-15T12:54:46+02:00</time>
      </trkpt>
      <trkpt lat="43.83479" lon="6.97922">
        <ele>1387.31958</ele>
        <time>2012-08-15T12:54:48+02:00</time>
      </trkpt>
      <trkpt lat="43.83498" lon="6.9792">
        <ele>1382.99365</ele>
        <time>2012-08-15T12:54:52+02:00</time>
      </trkpt>
      <trkpt lat="43.83511" lon="6.97912">
        <ele>1381.07129</ele>
        <time>2012-08-15T12:54:55+02:00</time>
      </trkpt>
      <trkpt lat="43.83519" lon="6.97911">
        <ele>1379.14844</ele>
        <time>2012-08-15T12:54:57+02:00</time>
      </trkpt>
      <trkpt lat="43.83533" lon="6.97904">
        <ele>1375.30322</ele>
        <time>2012-08-15T12:55:02+02:00</time>
      </trkpt>
      <trkpt lat="43.83541" lon="6.97903">
        <ele>1372.41943</ele>
        <time>2012-08-15T12:55:04+02:00</time>
      </trkpt>
      <trkpt lat="43.83552" lon="6.97909">
        <ele>1370.01587</ele>
        <time>2012-08-15T12:55:09+02:00</time>
      </trkpt>
      <trkpt lat="43.83554" lon="6.97909">
        <ele>1369.05469</ele>
        <time>2012-08-15T12:55:14+02:00</time>
      </trkpt>
      <trkpt lat="43.83558" lon="6.97914">
        <ele>1368.09326</ele>
        <time>2012-08-15T12:55:18+02:00</time>
      </trkpt>
      <trkpt lat="43.83567" lon="6.97919">
        <ele>1367.13208</ele>
        <time>2012-08-15T12:55:22+02:00</time>
      </trkpt>
      <trkpt lat="43.83581" lon="6.97917">
        <ele>1365.20947</ele>
        <time>2012-08-15T12:55:28+02:00</time>
      </trkpt>
      <trkpt lat="43.83594" lon="6.97921">
        <ele>1365.69019</ele>
        <time>2012-08-15T12:55:33+02:00</time>
      </trkpt>
      <trkpt lat="43.83605" lon="6.97928">
        <ele>1362.32544</ele>
        <time>2012-08-15T12:55:37+02:00</time>
      </trkpt>
      <trkpt lat="43.8362" lon="6.97926">
        <ele>1358.96094</ele>
        <time>2012-08-15T12:55:41+02:00</time>
      </trkpt>
      <trkpt lat="43.83632" lon="6.97924">
        <ele>1355.59619</ele>
        <time>2012-08-15T12:55:44+02:00</time>
      </trkpt>
      <trkpt lat="43.83652" lon="6.97921">
        <ele>1353.67358</ele>
        <time>2012-08-15T12:55:49+02:00</time>
      </trkpt>
      <trkpt lat="43.83668" lon="6.97935">
        <ele>1352.71216</ele>
        <time>2012-08-15T12:55:54+02:00</time>
      </trkpt>
      <trkpt lat="43.8368" lon="6.97945">
        <ele>1352.71216</ele>
        <time>2012-08-15T12:55:58+02:00</time>
      </trkpt>
      <trkpt lat="43.83691" lon="6.97948">
        <ele>1351.27026</ele>
        <time>2012-08-15T12:56:05+02:00</time>
      </trkpt>
      <trkpt lat="43.83696" lon="6.97951">
        <ele>1350.30908</ele>
        <time>2012-08-15T12:56:10+02:00</time>
      </trkpt>
      <trkpt lat="43.837" lon="6.97956">
        <ele>1350.30908</ele>
        <time>2012-08-15T12:56:12+02:00</time>
      </trkpt>
      <trkpt lat="43.83709" lon="6.97948">
        <ele>1349.34766</ele>
        <time>2012-08-15T12:56:17+02:00</time>
      </trkpt>
      <trkpt lat="43.83712" lon="6.97946">
        <ele>1351.27026</ele>
        <time>2012-08-15T12:56:24+02:00</time>
      </trkpt>
      <trkpt lat="43.83717" lon="6.97931">
        <ele>1350.30908</ele>
        <time>2012-08-15T12:56:30+02:00</time>
      </trkpt>
      <trkpt lat="43.83725" lon="6.97927">
        <ele>1350.78955</ele>
        <time>2012-08-15T12:56:35+02:00</time>
      </trkpt>
      <trkpt lat="43.83733" lon="6.97929">
        <ele>1348.86694</ele>
        <time>2012-08-15T12:56:40+02:00</time>
      </trkpt>
      <trkpt lat="43.83735" lon="6.97931">
        <ele>1348.38623</ele>
        <time>2012-08-15T12:56:41+02:00</time>
      </trkpt>
      <trkpt lat="43.83748" lon="6.97944">
        <ele>1344.54102</ele>
        <time>2012-08-15T12:56:48+02:00</time>
      </trkpt>
      <trkpt lat="43.83755" lon="6.97949">
        <ele>1341.65723</ele>
        <time>2012-08-15T12:56:51+02:00</time>
      </trkpt>
      <trkpt lat="43.83769" lon="6.97954">
        <ele>1336.36987</ele>
        <time>2012-08-15T12:56:56+02:00</time>
      </trkpt>
      <trkpt lat="43.83787" lon="6.97959">
        <ele>1332.04395</ele>
        <time>2012-08-15T12:57:01+02:00</time>
      </trkpt>
      <trkpt lat="43.83799" lon="6.97953">
        <ele>1327.23755</ele>
        <time>2012-08-15T12:57:06+02:00</time>
      </trkpt>
      <trkpt lat="43.83808" lon="6.9795">
        <ele>1321.94995</ele>
        <time>2012-08-15T12:57:11+02:00</time>
      </trkpt>
      <trkpt lat="43.8381" lon="6.9795">
        <ele>1320.98877</ele>
        <time>2012-08-15T12:57:12+02:00</time>
      </trkpt>
      <trkpt lat="43.83824" lon="6.97949">
        <ele>1316.18213</ele>
        <time>2012-08-15T12:57:18+02:00</time>
      </trkpt>
      <trkpt lat="43.83837" lon="6.97941">
        <ele>1310.89502</ele>
        <time>2012-08-15T12:57:23+02:00</time>
      </trkpt>
      <trkpt lat="43.83845" lon="6.97936">
        <ele>1307.04956</ele>
        <time>2012-08-15T12:57:27+02:00</time>
      </trkpt>
      <trkpt lat="43.83847" lon="6.97935">
        <ele>1305.60767</ele>
        <time>2012-08-15T12:57:29+02:00</time>
      </trkpt>
      <trkpt lat="43.83849" lon="6.97934">
        <ele>1304.64624</ele>
        <time>2012-08-15T12:57:43+02:00</time>
      </trkpt>
      <trkpt lat="43.83854" lon="6.97932">
        <ele>1306.56885</ele>
        <time>2012-08-15T12:58:18+02:00</time>
      </trkpt>
      <trkpt lat="43.83854" lon="6.97932">
        <ele>1304.64624</ele>
        <time>2012-08-15T12:58:26+02:00</time>
      </trkpt>
      <trkpt lat="43.83854" lon="6.97934">
        <ele>1304.64624</ele>
        <time>2012-08-15T12:58:27+02:00</time>
      </trkpt>
      <trkpt lat="43.83854" lon="6.97941">
        <ele>1302.72363</ele>
        <time>2012-08-15T12:58:30+02:00</time>
      </trkpt>
      <trkpt lat="43.8386" lon="6.97942">
        <ele>1298.87842</ele>
        <time>2012-08-15T12:58:36+02:00</time>
      </trkpt>
      <trkpt lat="43.83863" lon="6.97936">
        <ele>1296.95581</ele>
        <time>2012-08-15T12:58:39+02:00</time>
      </trkpt>
      <trkpt lat="43.83866" lon="6.97934">
        <ele>1295.99463</ele>
        <time>2012-08-15T12:58:47+02:00</time>
      </trkpt>
      <trkpt lat="43.83867" lon="6.97936">
        <ele>1295.51392</ele>
        <time>2012-08-15T12:58:58+02:00</time>
      </trkpt>
      <trkpt lat="43.83867" lon="6.97938">
        <ele>1294.07202</ele>
        <time>2012-08-15T12:59:07+02:00</time>
      </trkpt>
      <trkpt lat="43.83868" lon="6.97938">
        <ele>1294.55249</ele>
        <time>2012-08-15T12:59:15+02:00</time>
      </trkpt>
      <trkpt lat="43.83869" lon="6.97936">
        <ele>1296.47534</ele>
        <time>2012-08-15T12:59:27+02:00</time>
      </trkpt>
      <trkpt lat="43.83871" lon="6.97936">
        <ele>1296.95581</ele>
        <time>2012-08-15T12:59:38+02:00</time>
      </trkpt>
      <trkpt lat="43.83873" lon="6.97935">
        <ele>1296.47534</ele>
        <time>2012-08-15T12:59:44+02:00</time>
      </trkpt>
      <trkpt lat="43.83873" lon="6.97937">
        <ele>1296.47534</ele>
        <time>2012-08-15T12:59:51+02:00</time>
      </trkpt>
      <trkpt lat="43.83873" lon="6.97939">
        <ele>1295.99463</ele>
        <time>2012-08-15T12:59:55+02:00</time>
      </trkpt>
      <trkpt lat="43.83874" lon="6.97944">
        <ele>1294.55249</ele>
        <time>2012-08-15T12:59:59+02:00</time>
      </trkpt>
      <trkpt lat="43.83874" lon="6.9795">
        <ele>1292.63013</ele>
        <time>2012-08-15T13:00:04+02:00</time>
      </trkpt>
      <trkpt lat="43.83876" lon="6.97949">
        <ele>1291.18774</ele>
        <time>2012-08-15T13:00:06+02:00</time>
      </trkpt>
      <trkpt lat="43.83882" lon="6.97944">
        <ele>1287.34253</ele>
        <time>2012-08-15T13:00:13+02:00</time>
      </trkpt>
      <trkpt lat="43.83882" lon="6.97945">
        <ele>1285.41992</ele>
        <time>2012-08-15T13:00:20+02:00</time>
      </trkpt>
      <trkpt lat="43.8388" lon="6.97948">
        <ele>1285.41992</ele>
        <time>2012-08-15T13:00:27+02:00</time>
      </trkpt>
      <trkpt lat="43.83876" lon="6.97949">
        <ele>1287.82324</ele>
        <time>2012-08-15T13:00:33+02:00</time>
      </trkpt>
      <trkpt lat="43.83873" lon="6.97949">
        <ele>1288.78467</ele>
        <time>2012-08-15T13:00:39+02:00</time>
      </trkpt>
      <trkpt lat="43.83873" lon="6.97945">
        <ele>1291.18774</ele>
        <time>2012-08-15T13:00:44+02:00</time>
      </trkpt>
      <trkpt lat="43.83873" lon="6.97942">
        <ele>1292.14941</ele>
        <time>2012-08-15T13:00:49+02:00</time>
      </trkpt>
      <trkpt lat="43.83872" lon="6.97938">
        <ele>1293.59131</ele>
        <time>2012-08-15T13:00:56+02:00</time>
      </trkpt>
      <trkpt lat="43.8387" lon="6.97935">
        <ele>1295.51392</ele>
        <time>2012-08-15T13:01:02+02:00</time>
      </trkpt>
      <trkpt lat="43.83866" lon="6.9794">
        <ele>1297.43652</ele>
        <time>2012-08-15T13:01:08+02:00</time>
      </trkpt>
      <trkpt lat="43.83861" lon="6.97944">
        <ele>1298.39771</ele>
        <time>2012-08-15T13:01:15+02:00</time>
      </trkpt>
      <trkpt lat="43.83857" lon="6.97947">
        <ele>1302.24292</ele>
        <time>2012-08-15T13:01:22+02:00</time>
      </trkpt>
      <trkpt lat="43.83853" lon="6.97945">
        <ele>1303.20435</ele>
        <time>2012-08-15T13:01:29+02:00</time>
      </trkpt>
      <trkpt lat="43.83853" lon="6.97941">
        <ele>1303.68506</ele>
        <time>2012-08-15T13:01:35+02:00</time>
      </trkpt>
      <trkpt lat="43.83852" lon="6.97935">
        <ele>1305.12695</ele>
        <time>2012-08-15T13:01:41+02:00</time>
      </trkpt>
      <trkpt lat="43.83851" lon="6.97937">
        <ele>1307.04956</ele>
        <time>2012-08-15T13:01:47+02:00</time>
      </trkpt>
      <trkpt lat="43.83846" lon="6.97938">
        <ele>1308.01123</ele>
        <time>2012-08-15T13:01:54+02:00</time>
      </trkpt>
      <trkpt lat="43.83842" lon="6.9794">
        <ele>1307.53027</ele>
        <time>2012-08-15T13:02:03+02:00</time>
      </trkpt>
      <trkpt lat="43.83837" lon="6.97941">
        <ele>1308.4917</ele>
        <time>2012-08-15T13:02:11+02:00</time>
      </trkpt>
      <trkpt lat="43.83833" lon="6.97944">
        <ele>1308.97241</ele>
        <time>2012-08-15T13:02:18+02:00</time>
      </trkpt>
      <trkpt lat="43.83829" lon="6.97944">
        <ele>1311.37573</ele>
        <time>2012-08-15T13:02:25+02:00</time>
      </trkpt>
      <trkpt lat="43.83827" lon="6.97943">
        <ele>1312.33691</ele>
        <time>2012-08-15T13:02:32+02:00</time>
      </trkpt>
      <trkpt lat="43.83824" lon="6.97943">
        <ele>1315.22095</ele>
        <time>2012-08-15T13:02:38+02:00</time>
      </trkpt>
      <trkpt lat="43.83819" lon="6.97944">
        <ele>1316.18213</ele>
        <time>2012-08-15T13:02:46+02:00</time>
      </trkpt>
      <trkpt lat="43.83813" lon="6.97945">
        <ele>1317.14355</ele>
        <time>2012-08-15T13:02:55+02:00</time>
      </trkpt>
      <trkpt lat="43.83808" lon="6.97947">
        <ele>1320.02734</ele>
        <time>2012-08-15T13:03:03+02:00</time>
      </trkpt>
      <trkpt lat="43.83802" lon="6.97949">
        <ele>1318.58545</ele>
        <time>2012-08-15T13:03:09+02:00</time>
      </trkpt>
      <trkpt lat="43.83797" lon="6.9795">
        <ele>1318.58545</ele>
        <time>2012-08-15T13:03:16+02:00</time>
      </trkpt>
      <trkpt lat="43.8379" lon="6.97949">
        <ele>1320.02734</ele>
        <time>2012-08-15T13:03:24+02:00</time>
      </trkpt>
      <trkpt lat="43.83785" lon="6.97949">
        <ele>1320.98877</ele>
        <time>2012-08-15T13:03:31+02:00</time>
      </trkpt>
      <trkpt lat="43.8378" lon="6.9795">
        <ele>1322.43066</ele>
        <time>2012-08-15T13:03:37+02:00</time>
      </trkpt>
      <trkpt lat="43.83775" lon="6.97948">
        <ele>1324.83423</ele>
        <time>2012-08-15T13:03:43+02:00</time>
      </trkpt>
      <trkpt lat="43.8377" lon="6.97948">
        <ele>1327.23755</ele>
        <time>2012-08-15T13:03:48+02:00</time>
      </trkpt>
      <trkpt lat="43.83766" lon="6.97948">
        <ele>1330.12134</ele>
        <time>2012-08-15T13:03:55+02:00</time>
      </trkpt>
      <trkpt lat="43.83765" lon="6.97949">
        <ele>1338.77319</ele>
        <time>2012-08-15T13:04:05+02:00</time>
      </trkpt>
      <trkpt lat="43.83765" lon="6.97946">
        <ele>1339.25366</ele>
        <time>2012-08-15T13:04:14+02:00</time>
      </trkpt>
      <trkpt lat="43.8376" lon="6.97942">
        <ele>1337.81177</ele>
        <time>2012-08-15T13:04:21+02:00</time>
      </trkpt>
      <trkpt lat="43.83761" lon="6.97942">
        <ele>1339.73438</ele>
        <time>2012-08-15T13:04:36+02:00</time>
      </trkpt>
      <trkpt lat="43.83756" lon="6.9794">
        <ele>1339.25366</ele>
        <time>2012-08-15T13:04:43+02:00</time>
      </trkpt>
      <trkpt lat="43.83753" lon="6.97937">
        <ele>1335.88916</ele>
        <time>2012-08-15T13:04:50+02:00</time>
      </trkpt>
      <trkpt lat="43.83748" lon="6.97934">
        <ele>1334.92798</ele>
        <time>2012-08-15T13:04:57+02:00</time>
      </trkpt>
      <trkpt lat="43.83746" lon="6.97931">
        <ele>1339.25366</ele>
        <time>2012-08-15T13:05:03+02:00</time>
      </trkpt>
      <trkpt lat="43.83743" lon="6.97928">
        <ele>1340.6958</ele>
        <time>2012-08-15T13:05:08+02:00</time>
      </trkpt>
      <trkpt lat="43.83739" lon="6.97924">
        <ele>1343.57983</ele>
        <time>2012-08-15T13:05:16+02:00</time>
      </trkpt>
      <trkpt lat="43.83734" lon="6.97922">
        <ele>1347.42505</ele>
        <time>2012-08-15T13:05:23+02:00</time>
      </trkpt>
      <trkpt lat="43.8373" lon="6.97921">
        <ele>1348.86694</ele>
        <time>2012-08-15T13:05:30+02:00</time>
      </trkpt>
      <trkpt lat="43.83727" lon="6.97923">
        <ele>1347.90576</ele>
        <time>2012-08-15T13:05:38+02:00</time>
      </trkpt>
      <trkpt lat="43.83725" lon="6.97929">
        <ele>1348.86694</ele>
        <time>2012-08-15T13:05:45+02:00</time>
      </trkpt>
      <trkpt lat="43.83722" lon="6.97935">
        <ele>1346.94434</ele>
        <time>2012-08-15T13:05:51+02:00</time>
      </trkpt>
      <trkpt lat="43.83719" lon="6.97941">
        <ele>1346.94434</ele>
        <time>2012-08-15T13:05:58+02:00</time>
      </trkpt>
      <trkpt lat="43.83716" lon="6.97946">
        <ele>1352.23145</ele>
        <time>2012-08-15T13:06:09+02:00</time>
      </trkpt>
      <trkpt lat="43.83713" lon="6.9795">
        <ele>1354.1543</ele>
        <time>2012-08-15T13:06:18+02:00</time>
      </trkpt>
      <trkpt lat="43.83711" lon="6.97952">
        <ele>1354.63477</ele>
        <time>2012-08-15T13:06:20+02:00</time>
      </trkpt>
      <trkpt lat="43.83705" lon="6.97952">
        <ele>1354.63477</ele>
        <time>2012-08-15T13:06:25+02:00</time>
      </trkpt>
      <trkpt lat="43.83704" lon="6.97951">
        <ele>1354.1543</ele>
        <time>2012-08-15T13:06:26+02:00</time>
      </trkpt>
      <trkpt lat="43.83703" lon="6.97948">
        <ele>1354.1543</ele>
        <time>2012-08-15T13:06:28+02:00</time>
      </trkpt>
      <trkpt lat="43.83699" lon="6.97945">
        <ele>1354.63477</ele>
        <time>2012-08-15T13:06:32+02:00</time>
      </trkpt>
      <trkpt lat="43.83694" lon="6.97947">
        <ele>1355.59619</ele>
        <time>2012-08-15T13:06:37+02:00</time>
      </trkpt>
      <trkpt lat="43.83691" lon="6.97945">
        <ele>1357.03833</ele>
        <time>2012-08-15T13:06:40+02:00</time>
      </trkpt>
      <trkpt lat="43.83684" lon="6.97943">
        <ele>1355.59619</ele>
        <time>2012-08-15T13:06:45+02:00</time>
      </trkpt>
      <trkpt lat="43.83677" lon="6.97933">
        <ele>1356.0769</ele>
        <time>2012-08-15T13:06:50+02:00</time>
      </trkpt>
      <trkpt lat="43.8367" lon="6.97924">
        <ele>1355.59619</ele>
        <time>2012-08-15T13:06:55+02:00</time>
      </trkpt>
      <trkpt lat="43.83668" lon="6.97922">
        <ele>1355.59619</ele>
        <time>2012-08-15T13:06:56+02:00</time>
      </trkpt>
      <trkpt lat="43.83659" lon="6.97921">
        <ele>1356.55762</ele>
        <time>2012-08-15T13:07:01+02:00</time>
      </trkpt>
      <trkpt lat="43.83646" lon="6.97921">
        <ele>1356.0769</ele>
        <time>2012-08-15T13:07:07+02:00</time>
      </trkpt>
      <trkpt lat="43.83629" lon="6.97921">
        <ele>1353.19287</ele>
        <time>2012-08-15T13:07:13+02:00</time>
      </trkpt>
      <trkpt lat="43.83616" lon="6.97924">
        <ele>1352.71216</ele>
        <time>2012-08-15T13:07:18+02:00</time>
      </trkpt>
      <trkpt lat="43.83609" lon="6.97923">
        <ele>1353.67358</ele>
        <time>2012-08-15T13:07:22+02:00</time>
      </trkpt>
      <trkpt lat="43.83605" lon="6.97921">
        <ele>1356.0769</ele>
        <time>2012-08-15T13:07:25+02:00</time>
      </trkpt>
      <trkpt lat="43.83596" lon="6.97918">
        <ele>1356.55762</ele>
        <time>2012-08-15T13:07:31+02:00</time>
      </trkpt>
      <trkpt lat="43.8359" lon="6.97918">
        <ele>1357.99976</ele>
        <time>2012-08-15T13:07:36+02:00</time>
      </trkpt>
      <trkpt lat="43.83586" lon="6.97916">
        <ele>1359.92212</ele>
        <time>2012-08-15T13:07:39+02:00</time>
      </trkpt>
      <trkpt lat="43.83578" lon="6.97916">
        <ele>1357.99976</ele>
        <time>2012-08-15T13:07:45+02:00</time>
      </trkpt>
      <trkpt lat="43.83577" lon="6.97917">
        <ele>1357.51904</ele>
        <time>2012-08-15T13:07:46+02:00</time>
      </trkpt>
      <trkpt lat="43.83569" lon="6.97917">
        <ele>1358.48022</ele>
        <time>2012-08-15T13:07:50+02:00</time>
      </trkpt>
      <trkpt lat="43.83564" lon="6.97915">
        <ele>1361.84497</ele>
        <time>2012-08-15T13:07:56+02:00</time>
      </trkpt>
      <trkpt lat="43.83563" lon="6.97915">
        <ele>1361.84497</ele>
        <time>2012-08-15T13:07:58+02:00</time>
      </trkpt>
      <trkpt lat="43.83562" lon="6.97915">
        <ele>1363.76733</ele>
        <time>2012-08-15T13:08:07+02:00</time>
      </trkpt>
      <trkpt lat="43.83561" lon="6.97916">
        <ele>1365.69019</ele>
        <time>2012-08-15T13:08:16+02:00</time>
      </trkpt>
      <trkpt lat="43.83558" lon="6.9791">
        <ele>1364.24805</ele>
        <time>2012-08-15T13:08:22+02:00</time>
      </trkpt>
      <trkpt lat="43.83556" lon="6.97908">
        <ele>1363.76733</ele>
        <time>2012-08-15T13:08:26+02:00</time>
      </trkpt>
      <trkpt lat="43.83553" lon="6.97906">
        <ele>1363.28687</ele>
        <time>2012-08-15T13:08:30+02:00</time>
      </trkpt>
      <trkpt lat="43.8355" lon="6.97906">
        <ele>1363.28687</ele>
        <time>2012-08-15T13:08:32+02:00</time>
      </trkpt>
      <trkpt lat="43.8354" lon="6.97906">
        <ele>1363.76733</ele>
        <time>2012-08-15T13:08:39+02:00</time>
      </trkpt>
      <trkpt lat="43.83539" lon="6.97905">
        <ele>1363.28687</ele>
        <time>2012-08-15T13:08:40+02:00</time>
      </trkpt>
      <trkpt lat="43.83537" lon="6.97906">
        <ele>1363.28687</ele>
        <time>2012-08-15T13:08:42+02:00</time>
      </trkpt>
      <trkpt lat="43.83534" lon="6.97909">
        <ele>1363.76733</ele>
        <time>2012-08-15T13:08:45+02:00</time>
      </trkpt>
      <trkpt lat="43.83523" lon="6.9791">
        <ele>1366.17065</ele>
        <time>2012-08-15T13:08:51+02:00</time>
      </trkpt>
      <trkpt lat="43.83519" lon="6.97908">
        <ele>1368.09326</ele>
        <time>2012-08-15T13:08:54+02:00</time>
      </trkpt>
      <trkpt lat="43.83511" lon="6.97911">
        <ele>1367.61255</ele>
        <time>2012-08-15T13:09:00+02:00</time>
      </trkpt>
      <trkpt lat="43.83503" lon="6.97915">
        <ele>1367.13208</ele>
        <time>2012-08-15T13:09:05+02:00</time>
      </trkpt>
      <trkpt lat="43.8349" lon="6.97916">
        <ele>1371.45776</ele>
        <time>2012-08-15T13:09:13+02:00</time>
      </trkpt>
      <trkpt lat="43.83481" lon="6.97914">
        <ele>1373.38086</ele>
        <time>2012-08-15T13:09:19+02:00</time>
      </trkpt>
      <trkpt lat="43.83473" lon="6.97912">
        <ele>1375.30322</ele>
        <time>2012-08-15T13:09:24+02:00</time>
      </trkpt>
      <trkpt lat="43.83462" lon="6.97907">
        <ele>1375.78394</ele>
        <time>2012-08-15T13:09:32+02:00</time>
      </trkpt>
      <trkpt lat="43.83455" lon="6.97904">
        <ele>1378.18726</ele>
        <time>2012-08-15T13:09:36+02:00</time>
      </trkpt>
      <trkpt lat="43.83448" lon="6.97899">
        <ele>1378.66797</ele>
        <time>2012-08-15T13:09:41+02:00</time>
      </trkpt>
      <trkpt lat="43.83441" lon="6.97897">
        <ele>1379.14844</ele>
        <time>2012-08-15T13:09:45+02:00</time>
      </trkpt>
      <trkpt lat="43.83433" lon="6.97891">
        <ele>1381.55176</ele>
        <time>2012-08-15T13:09:50+02:00</time>
      </trkpt>
      <trkpt lat="43.83424" lon="6.97891">
        <ele>1382.03247</ele>
        <time>2012-08-15T13:09:56+02:00</time>
      </trkpt>
      <trkpt lat="43.83419" lon="6.97893">
        <ele>1384.43579</ele>
        <time>2012-08-15T13:09:59+02:00</time>
      </trkpt>
      <trkpt lat="43.83415" lon="6.97895">
        <ele>1384.9165</ele>
        <time>2012-08-15T13:10:04+02:00</time>
      </trkpt>
      <trkpt lat="43.83419" lon="6.97904">
        <ele>1382.03247</ele>
        <time>2012-08-15T13:10:07+02:00</time>
      </trkpt>
      <trkpt lat="43.83434" lon="6.9793">
        <ele>1375.78394</ele>
        <time>2012-08-15T13:10:13+02:00</time>
      </trkpt>
      <trkpt lat="43.83436" lon="6.97936">
        <ele>1376.26465</ele>
        <time>2012-08-15T13:10:14+02:00</time>
      </trkpt>
      <trkpt lat="43.83436" lon="6.9795">
        <ele>1376.74536</ele>
        <time>2012-08-15T13:10:19+02:00</time>
      </trkpt>
      <trkpt lat="43.83435" lon="6.97954">
        <ele>1377.70654</ele>
        <time>2012-08-15T13:10:21+02:00</time>
      </trkpt>
      <trkpt lat="43.83431" lon="6.97958">
        <ele>1377.70654</ele>
        <time>2012-08-15T13:10:27+02:00</time>
      </trkpt>
      <trkpt lat="43.8343" lon="6.97957">
        <ele>1377.22607</ele>
        <time>2012-08-15T13:10:28+02:00</time>
      </trkpt>
      <trkpt lat="43.83425" lon="6.97953">
        <ele>1380.10986</ele>
        <time>2012-08-15T13:10:33+02:00</time>
      </trkpt>
      <trkpt lat="43.83417" lon="6.97944">
        <ele>1383.95508</ele>
        <time>2012-08-15T13:10:41+02:00</time>
      </trkpt>
      <trkpt lat="43.83416" lon="6.97943">
        <ele>1384.43579</ele>
        <time>2012-08-15T13:10:42+02:00</time>
      </trkpt>
      <trkpt lat="43.83411" lon="6.97937">
        <ele>1386.83887</ele>
        <time>2012-08-15T13:10:48+02:00</time>
      </trkpt>
      <trkpt lat="43.83403" lon="6.97925">
        <ele>1387.80029</ele>
        <time>2012-08-15T13:10:57+02:00</time>
      </trkpt>
      <trkpt lat="43.83399" lon="6.97918">
        <ele>1389.72314</ele>
        <time>2012-08-15T13:11:02+02:00</time>
      </trkpt>
      <trkpt lat="43.83393" lon="6.97908">
        <ele>1391.64575</ele>
        <time>2012-08-15T13:11:09+02:00</time>
      </trkpt>
      <trkpt lat="43.83386" lon="6.97898">
        <ele>1394.52954</ele>
        <time>2012-08-15T13:11:16+02:00</time>
      </trkpt>
      <trkpt lat="43.83382" lon="6.97889">
        <ele>1395.97168</ele>
        <time>2012-08-15T13:11:22+02:00</time>
      </trkpt>
      <trkpt lat="43.83378" lon="6.9788">
        <ele>1396.93286</ele>
        <time>2012-08-15T13:11:28+02:00</time>
      </trkpt>
      <trkpt lat="43.83376" lon="6.9787">
        <ele>1397.41357</ele>
        <time>2012-08-15T13:11:34+02:00</time>
      </trkpt>
      <trkpt lat="43.83378" lon="6.9786">
        <ele>1396.45239</ele>
        <time>2012-08-15T13:11:39+02:00</time>
      </trkpt>
      <trkpt lat="43.8338" lon="6.97851">
        <ele>1398.85547</ele>
        <time>2012-08-15T13:11:44+02:00</time>
      </trkpt>
      <trkpt lat="43.8338" lon="6.97849">
        <ele>1398.37476</ele>
        <time>2012-08-15T13:11:46+02:00</time>
      </trkpt>
      <trkpt lat="43.83379" lon="6.97841">
        <ele>1399.81689</ele>
        <time>2012-08-15T13:11:53+02:00</time>
      </trkpt>
      <trkpt lat="43.83378" lon="6.97835">
        <ele>1402.21997</ele>
        <time>2012-08-15T13:12:03+02:00</time>
      </trkpt>
      <trkpt lat="43.83376" lon="6.97829">
        <ele>1402.70068</ele>
        <time>2012-08-15T13:12:10+02:00</time>
      </trkpt>
      <trkpt lat="43.83373" lon="6.97823">
        <ele>1398.85547</ele>
        <time>2012-08-15T13:12:18+02:00</time>
      </trkpt>
      <trkpt lat="43.83371" lon="6.97814">
        <ele>1398.85547</ele>
        <time>2012-08-15T13:12:25+02:00</time>
      </trkpt>
      <trkpt lat="43.83372" lon="6.97808">
        <ele>1403.66211</ele>
        <time>2012-08-15T13:12:31+02:00</time>
      </trkpt>
      <trkpt lat="43.83372" lon="6.97799">
        <ele>1408.46875</ele>
        <time>2012-08-15T13:12:38+02:00</time>
      </trkpt>
      <trkpt lat="43.8337" lon="6.97789">
        <ele>1407.02686</ele>
        <time>2012-08-15T13:12:45+02:00</time>
      </trkpt>
      <trkpt lat="43.83367" lon="6.97783">
        <ele>1406.06543</ele>
        <time>2012-08-15T13:12:52+02:00</time>
      </trkpt>
      <trkpt lat="43.83367" lon="6.97777">
        <ele>1412.31396</ele>
        <time>2012-08-15T13:12:59+02:00</time>
      </trkpt>
      <trkpt lat="43.83365" lon="6.97769">
        <ele>1416.63989</ele>
        <time>2012-08-15T13:13:09+02:00</time>
      </trkpt>
      <trkpt lat="43.83359" lon="6.97755">
        <ele>1418.08179</ele>
        <time>2012-08-15T13:13:17+02:00</time>
      </trkpt>
      <trkpt lat="43.83354" lon="6.97744">
        <ele>1419.52393</ele>
        <time>2012-08-15T13:13:24+02:00</time>
      </trkpt>
      <trkpt lat="43.83351" lon="6.97735">
        <ele>1419.52393</ele>
        <time>2012-08-15T13:13:30+02:00</time>
      </trkpt>
      <trkpt lat="43.83349" lon="6.97726">
        <ele>1420.00464</ele>
        <time>2012-08-15T13:13:36+02:00</time>
      </trkpt>
      <trkpt lat="43.83347" lon="6.97723">
        <ele>1418.08179</ele>
        <time>2012-08-15T13:13:43+02:00</time>
      </trkpt>
      <trkpt lat="43.83342" lon="6.97715">
        <ele>1417.12061</ele>
        <time>2012-08-15T13:13:51+02:00</time>
      </trkpt>
      <trkpt lat="43.83339" lon="6.97707">
        <ele>1414.71729</ele>
        <time>2012-08-15T13:13:59+02:00</time>
      </trkpt>
      <trkpt lat="43.83337" lon="6.97699">
        <ele>1417.60107</ele>
        <time>2012-08-15T13:14:04+02:00</time>
      </trkpt>
      <trkpt lat="43.83335" lon="6.97695">
        <ele>1418.5625</ele>
        <time>2012-08-15T13:14:07+02:00</time>
      </trkpt>
      <trkpt lat="43.83334" lon="6.97688">
        <ele>1421.44653</ele>
        <time>2012-08-15T13:14:13+02:00</time>
      </trkpt>
      <trkpt lat="43.83331" lon="6.9768">
        <ele>1420.00464</ele>
        <time>2012-08-15T13:14:21+02:00</time>
      </trkpt>
      <trkpt lat="43.83329" lon="6.97671">
        <ele>1420.96606</ele>
        <time>2012-08-15T13:14:29+02:00</time>
      </trkpt>
      <trkpt lat="43.83327" lon="6.97663">
        <ele>1422.40796</ele>
        <time>2012-08-15T13:14:36+02:00</time>
      </trkpt>
      <trkpt lat="43.83327" lon="6.97651">
        <ele>1427.2146</ele>
        <time>2012-08-15T13:14:44+02:00</time>
      </trkpt>
      <trkpt lat="43.83326" lon="6.97645">
        <ele>1429.61768</ele>
        <time>2012-08-15T13:14:50+02:00</time>
      </trkpt>
      <trkpt lat="43.83322" lon="6.97633">
        <ele>1432.50171</ele>
        <time>2012-08-15T13:14:57+02:00</time>
      </trkpt>
      <trkpt lat="43.83315" lon="6.97622">
        <ele>1435.3855</ele>
        <time>2012-08-15T13:15:03+02:00</time>
      </trkpt>
      <trkpt lat="43.8331" lon="6.97608">
        <ele>1439.71167</ele>
        <time>2012-08-15T13:15:10+02:00</time>
      </trkpt>
      <trkpt lat="43.83306" lon="6.97596">
        <ele>1441.63428</ele>
        <time>2012-08-15T13:15:16+02:00</time>
      </trkpt>
      <trkpt lat="43.833" lon="6.97584">
        <ele>1443.07617</ele>
        <time>2012-08-15T13:15:23+02:00</time>
      </trkpt>
      <trkpt lat="43.83294" lon="6.9757">
        <ele>1443.55688</ele>
        <time>2012-08-15T13:15:30+02:00</time>
      </trkpt>
      <trkpt lat="43.83288" lon="6.97558">
        <ele>1443.55688</ele>
        <time>2012-08-15T13:15:37+02:00</time>
      </trkpt>
      <trkpt lat="43.83284" lon="6.97547">
        <ele>1444.51807</ele>
        <time>2012-08-15T13:15:43+02:00</time>
      </trkpt>
      <trkpt lat="43.83278" lon="6.97535">
        <ele>1447.4021</ele>
        <time>2012-08-15T13:15:50+02:00</time>
      </trkpt>
      <trkpt lat="43.83272" lon="6.97528">
        <ele>1448.84399</ele>
        <time>2012-08-15T13:15:56+02:00</time>
      </trkpt>
      <trkpt lat="43.8327" lon="6.97525">
        <ele>1448.84399</ele>
        <time>2012-08-15T13:16:02+02:00</time>
      </trkpt>
      <trkpt lat="43.8327" lon="6.97525">
        <ele>1448.36328</ele>
        <time>2012-08-15T13:16:13+02:00</time>
      </trkpt>
      <trkpt lat="43.83272" lon="6.97524">
        <ele>1447.88281</ele>
        <time>2012-08-15T13:16:20+02:00</time>
      </trkpt>
      <trkpt lat="43.83272" lon="6.97524">
        <ele>1447.4021</ele>
        <time>2012-08-15T13:16:28+02:00</time>
      </trkpt>
      <trkpt lat="43.83273" lon="6.97524">
        <ele>1447.4021</ele>
        <time>2012-08-15T13:16:36+02:00</time>
      </trkpt>
      <trkpt lat="43.83283" lon="6.97528">
        <ele>1445.96021</ele>
        <time>2012-08-15T13:16:41+02:00</time>
      </trkpt>
      <trkpt lat="43.83298" lon="6.97544">
        <ele>1444.99878</ele>
        <time>2012-08-15T13:16:46+02:00</time>
      </trkpt>
      <trkpt lat="43.83314" lon="6.97556">
        <ele>1444.99878</ele>
        <time>2012-08-15T13:16:50+02:00</time>
      </trkpt>
      <trkpt lat="43.83328" lon="6.97561">
        <ele>1445.96021</ele>
        <time>2012-08-15T13:16:55+02:00</time>
      </trkpt>
      <trkpt lat="43.83339" lon="6.97563">
        <ele>1446.92139</ele>
        <time>2012-08-15T13:16:59+02:00</time>
      </trkpt>
      <trkpt lat="43.83352" lon="6.97571">
        <ele>1447.4021</ele>
        <time>2012-08-15T13:17:04+02:00</time>
      </trkpt>
      <trkpt lat="43.83363" lon="6.9758">
        <ele>1448.36328</ele>
        <time>2012-08-15T13:17:09+02:00</time>
      </trkpt>
      <trkpt lat="43.83373" lon="6.97582">
        <ele>1452.68945</ele>
        <time>2012-08-15T13:17:15+02:00</time>
      </trkpt>
      <trkpt lat="43.83384" lon="6.97581">
        <ele>1456.05396</ele>
        <time>2012-08-15T13:17:22+02:00</time>
      </trkpt>
      <trkpt lat="43.83389" lon="6.97586">
        <ele>1457.01538</ele>
        <time>2012-08-15T13:17:26+02:00</time>
      </trkpt>
      <trkpt lat="43.83391" lon="6.97587">
        <ele>1456.53467</ele>
        <time>2012-08-15T13:17:27+02:00</time>
      </trkpt>
      <trkpt lat="43.83398" lon="6.97593">
        <ele>1458.93799</ele>
        <time>2012-08-15T13:17:32+02:00</time>
      </trkpt>
      <trkpt lat="43.834" lon="6.97596">
        <ele>1459.4187</ele>
        <time>2012-08-15T13:17:34+02:00</time>
      </trkpt>
      <trkpt lat="43.83406" lon="6.97605">
        <ele>1459.89917</ele>
        <time>2012-08-15T13:17:40+02:00</time>
      </trkpt>
      <trkpt lat="43.83409" lon="6.97604">
        <ele>1460.37988</ele>
        <time>2012-08-15T13:17:47+02:00</time>
      </trkpt>
      <trkpt lat="43.83413" lon="6.97603">
        <ele>1460.37988</ele>
        <time>2012-08-15T13:17:53+02:00</time>
      </trkpt>
      <trkpt lat="43.83416" lon="6.97602">
        <ele>1460.8606</ele>
        <time>2012-08-15T13:17:59+02:00</time>
      </trkpt>
      <trkpt lat="43.83423" lon="6.97599">
        <ele>1460.8606</ele>
        <time>2012-08-15T13:18:06+02:00</time>
      </trkpt>
      <trkpt lat="43.83426" lon="6.97596">
        <ele>1461.34131</ele>
        <time>2012-08-15T13:18:12+02:00</time>
      </trkpt>
      <trkpt lat="43.83432" lon="6.97594">
        <ele>1462.7832</ele>
        <time>2012-08-15T13:18:19+02:00</time>
      </trkpt>
      <trkpt lat="43.83437" lon="6.97587">
        <ele>1463.26392</ele>
        <time>2012-08-15T13:18:26+02:00</time>
      </trkpt>
      <trkpt lat="43.83441" lon="6.97584">
        <ele>1465.66724</ele>
        <time>2012-08-15T13:18:35+02:00</time>
      </trkpt>
      <trkpt lat="43.83445" lon="6.97582">
        <ele>1467.5896</ele>
        <time>2012-08-15T13:18:45+02:00</time>
      </trkpt>
      <trkpt lat="43.83447" lon="6.9758">
        <ele>1467.5896</ele>
        <time>2012-08-15T13:18:52+02:00</time>
      </trkpt>
      <trkpt lat="43.83451" lon="6.97579">
        <ele>1469.5127</ele>
        <time>2012-08-15T13:19:00+02:00</time>
      </trkpt>
      <trkpt lat="43.83459" lon="6.97573">
        <ele>1468.55127</ele>
        <time>2012-08-15T13:19:04+02:00</time>
      </trkpt>
      <trkpt lat="43.83462" lon="6.97565">
        <ele>1467.5896</ele>
        <time>2012-08-15T13:19:07+02:00</time>
      </trkpt>
      <trkpt lat="43.83472" lon="6.97561">
        <ele>1468.55127</ele>
        <time>2012-08-15T13:19:12+02:00</time>
      </trkpt>
      <trkpt lat="43.83476" lon="6.97561">
        <ele>1469.5127</ele>
        <time>2012-08-15T13:19:14+02:00</time>
      </trkpt>
      <trkpt lat="43.83487" lon="6.97557">
        <ele>1469.99316</ele>
        <time>2012-08-15T13:19:20+02:00</time>
      </trkpt>
      <trkpt lat="43.83491" lon="6.97555">
        <ele>1469.5127</ele>
        <time>2012-08-15T13:19:22+02:00</time>
      </trkpt>
      <trkpt lat="43.83499" lon="6.97546">
        <ele>1467.5896</ele>
        <time>2012-08-15T13:19:27+02:00</time>
      </trkpt>
      <trkpt lat="43.83507" lon="6.9753">
        <ele>1469.03198</ele>
        <time>2012-08-15T13:19:34+02:00</time>
      </trkpt>
      <trkpt lat="43.83519" lon="6.97517">
        <ele>1469.5127</ele>
        <time>2012-08-15T13:19:40+02:00</time>
      </trkpt>
      <trkpt lat="43.83534" lon="6.97507">
        <ele>1469.03198</ele>
        <time>2012-08-15T13:19:47+02:00</time>
      </trkpt>
      <trkpt lat="43.83543" lon="6.97496">
        <ele>1469.03198</ele>
        <time>2012-08-15T13:19:52+02:00</time>
      </trkpt>
      <trkpt lat="43.83551" lon="6.97491">
        <ele>1469.99316</ele>
        <time>2012-08-15T13:19:56+02:00</time>
      </trkpt>
      <trkpt lat="43.83561" lon="6.97477">
        <ele>1469.03198</ele>
        <time>2012-08-15T13:20:01+02:00</time>
      </trkpt>
      <trkpt lat="43.83567" lon="6.97473">
        <ele>1469.99316</ele>
        <time>2012-08-15T13:20:04+02:00</time>
      </trkpt>
      <trkpt lat="43.83575" lon="6.97472">
        <ele>1471.43506</ele>
        <time>2012-08-15T13:20:09+02:00</time>
      </trkpt>
      <trkpt lat="43.83584" lon="6.97468">
        <ele>1476.72241</ele>
        <time>2012-08-15T13:20:15+02:00</time>
      </trkpt>
      <trkpt lat="43.8359" lon="6.97469">
        <ele>1478.16431</ele>
        <time>2012-08-15T13:20:20+02:00</time>
      </trkpt>
      <trkpt lat="43.83592" lon="6.97469">
        <ele>1479.6062</ele>
        <time>2012-08-15T13:20:23+02:00</time>
      </trkpt>
      <trkpt lat="43.83599" lon="6.97465">
        <ele>1479.12549</ele>
        <time>2012-08-15T13:20:30+02:00</time>
      </trkpt>
      <trkpt lat="43.83609" lon="6.97462">
        <ele>1478.16431</ele>
        <time>2012-08-15T13:20:35+02:00</time>
      </trkpt>
      <trkpt lat="43.8362" lon="6.97454">
        <ele>1475.76099</ele>
        <time>2012-08-15T13:20:40+02:00</time>
      </trkpt>
      <trkpt lat="43.83629" lon="6.97447">
        <ele>1474.31909</ele>
        <time>2012-08-15T13:20:45+02:00</time>
      </trkpt>
      <trkpt lat="43.83635" lon="6.97448">
        <ele>1474.31909</ele>
        <time>2012-08-15T13:20:49+02:00</time>
      </trkpt>
      <trkpt lat="43.83643" lon="6.97451">
        <ele>1475.28027</ele>
        <time>2012-08-15T13:20:53+02:00</time>
      </trkpt>
      <trkpt lat="43.83649" lon="6.97444">
        <ele>1474.31909</ele>
        <time>2012-08-15T13:20:58+02:00</time>
      </trkpt>
      <trkpt lat="43.8365" lon="6.97437">
        <ele>1473.83838</ele>
        <time>2012-08-15T13:21:00+02:00</time>
      </trkpt>
      <trkpt lat="43.83653" lon="6.97422">
        <ele>1473.35791</ele>
        <time>2012-08-15T13:21:05+02:00</time>
      </trkpt>
      <trkpt lat="43.83655" lon="6.97408">
        <ele>1472.8772</ele>
        <time>2012-08-15T13:21:09+02:00</time>
      </trkpt>
      <trkpt lat="43.83653" lon="6.97399">
        <ele>1473.35791</ele>
        <time>2012-08-15T13:21:13+02:00</time>
      </trkpt>
      <trkpt lat="43.83653" lon="6.97386">
        <ele>1472.39648</ele>
        <time>2012-08-15T13:21:19+02:00</time>
      </trkpt>
      <trkpt lat="43.83654" lon="6.97374">
        <ele>1473.83838</ele>
        <time>2012-08-15T13:21:24+02:00</time>
      </trkpt>
      <trkpt lat="43.83664" lon="6.97362">
        <ele>1475.28027</ele>
        <time>2012-08-15T13:21:30+02:00</time>
      </trkpt>
      <trkpt lat="43.83671" lon="6.97349">
        <ele>1473.83838</ele>
        <time>2012-08-15T13:21:35+02:00</time>
      </trkpt>
      <trkpt lat="43.83664" lon="6.97337">
        <ele>1472.8772</ele>
        <time>2012-08-15T13:21:41+02:00</time>
      </trkpt>
      <trkpt lat="43.83658" lon="6.9733">
        <ele>1473.35791</ele>
        <time>2012-08-15T13:21:45+02:00</time>
      </trkpt>
      <trkpt lat="43.83655" lon="6.9732">
        <ele>1473.83838</ele>
        <time>2012-08-15T13:21:49+02:00</time>
      </trkpt>
      <trkpt lat="43.83654" lon="6.97316">
        <ele>1475.76099</ele>
        <time>2012-08-15T13:21:51+02:00</time>
      </trkpt>
      <trkpt lat="43.83651" lon="6.97311">
        <ele>1477.68359</ele>
        <time>2012-08-15T13:21:54+02:00</time>
      </trkpt>
      <trkpt lat="43.83643" lon="6.97295">
        <ele>1480.56763</ele>
        <time>2012-08-15T13:22:03+02:00</time>
      </trkpt>
      <trkpt lat="43.83642" lon="6.97293">
        <ele>1481.04834</ele>
        <time>2012-08-15T13:22:05+02:00</time>
      </trkpt>
      <trkpt lat="43.8364" lon="6.97287">
        <ele>1482.00952</ele>
        <time>2012-08-15T13:22:09+02:00</time>
      </trkpt>
      <trkpt lat="43.83641" lon="6.97276">
        <ele>1482.00952</ele>
        <time>2012-08-15T13:22:14+02:00</time>
      </trkpt>
      <trkpt lat="43.83644" lon="6.97259">
        <ele>1479.6062</ele>
        <time>2012-08-15T13:22:20+02:00</time>
      </trkpt>
      <trkpt lat="43.8365" lon="6.97238">
        <ele>1477.20312</ele>
        <time>2012-08-15T13:22:26+02:00</time>
      </trkpt>
      <trkpt lat="43.83654" lon="6.97217">
        <ele>1474.7998</ele>
        <time>2012-08-15T13:22:31+02:00</time>
      </trkpt>
      <trkpt lat="43.83656" lon="6.97193">
        <ele>1469.99316</ele>
        <time>2012-08-15T13:22:35+02:00</time>
      </trkpt>
      <trkpt lat="43.83658" lon="6.97167">
        <ele>1467.10913</ele>
        <time>2012-08-15T13:22:39+02:00</time>
      </trkpt>
      <trkpt lat="43.83661" lon="6.97143">
        <ele>1463.26392</ele>
        <time>2012-08-15T13:22:44+02:00</time>
      </trkpt>
      <trkpt lat="43.83654" lon="6.97123">
        <ele>1460.8606</ele>
        <time>2012-08-15T13:22:47+02:00</time>
      </trkpt>
      <trkpt lat="43.83653" lon="6.9711">
        <ele>1466.14771</ele>
        <time>2012-08-15T13:22:50+02:00</time>
      </trkpt>
      <trkpt lat="43.83656" lon="6.97109">
        <ele>1469.5127</ele>
        <time>2012-08-15T13:22:52+02:00</time>
      </trkpt>
      <trkpt lat="43.83653" lon="6.97101">
        <ele>1477.68359</ele>
        <time>2012-08-15T13:23:00+02:00</time>
      </trkpt>
      <trkpt lat="43.8365" lon="6.97095">
        <ele>1482.00952</ele>
        <time>2012-08-15T13:23:06+02:00</time>
      </trkpt>
      <trkpt lat="43.83647" lon="6.97088">
        <ele>1486.33569</ele>
        <time>2012-08-15T13:23:13+02:00</time>
      </trkpt>
      <trkpt lat="43.83641" lon="6.97082">
        <ele>1487.77759</ele>
        <time>2012-08-15T13:23:20+02:00</time>
      </trkpt>
      <trkpt lat="43.83637" lon="6.97077">
        <ele>1490.66138</ele>
        <time>2012-08-15T13:23:26+02:00</time>
      </trkpt>
      <trkpt lat="43.83633" lon="6.97072">
        <ele>1491.6228</ele>
        <time>2012-08-15T13:23:31+02:00</time>
      </trkpt>
      <trkpt lat="43.8363" lon="6.97064">
        <ele>1492.58423</ele>
        <time>2012-08-15T13:23:38+02:00</time>
      </trkpt>
      <trkpt lat="43.83627" lon="6.9706">
        <ele>1491.14209</ele>
        <time>2012-08-15T13:23:43+02:00</time>
      </trkpt>
      <trkpt lat="43.83624" lon="6.97055">
        <ele>1491.6228</ele>
        <time>2012-08-15T13:23:47+02:00</time>
      </trkpt>
      <trkpt lat="43.83616" lon="6.97045">
        <ele>1492.58423</ele>
        <time>2012-08-15T13:23:53+02:00</time>
      </trkpt>
      <trkpt lat="43.83608" lon="6.97029">
        <ele>1491.14209</ele>
        <time>2012-08-15T13:23:59+02:00</time>
      </trkpt>
      <trkpt lat="43.83601" lon="6.97011">
        <ele>1488.2583</ele>
        <time>2012-08-15T13:24:03+02:00</time>
      </trkpt>
      <trkpt lat="43.83594" lon="6.96988">
        <ele>1485.37427</ele>
        <time>2012-08-15T13:24:07+02:00</time>
      </trkpt>
      <trkpt lat="43.83591" lon="6.96975">
        <ele>1484.41309</ele>
        <time>2012-08-15T13:24:08+02:00</time>
      </trkpt>
      <trkpt lat="43.83578" lon="6.96947">
        <ele>1481.04834</ele>
        <time>2012-08-15T13:24:11+02:00</time>
      </trkpt>
      <trkpt lat="43.83568" lon="6.96934">
        <ele>1479.12549</ele>
        <time>2012-08-15T13:24:13+02:00</time>
      </trkpt>
      <trkpt lat="43.83558" lon="6.96915">
        <ele>1475.28027</ele>
        <time>2012-08-15T13:24:16+02:00</time>
      </trkpt>
      <trkpt lat="43.83555" lon="6.969">
        <ele>1471.43506</ele>
        <time>2012-08-15T13:24:18+02:00</time>
      </trkpt>
      <trkpt lat="43.83554" lon="6.96849">
        <ele>1460.37988</ele>
        <time>2012-08-15T13:24:22+02:00</time>
      </trkpt>
      <trkpt lat="43.83562" lon="6.96794">
        <ele>1455.09277</ele>
        <time>2012-08-15T13:24:27+02:00</time>
      </trkpt>
      <trkpt lat="43.83568" lon="6.96764">
        <ele>1452.20874</ele>
        <time>2012-08-15T13:24:32+02:00</time>
      </trkpt>
      <trkpt lat="43.83576" lon="6.9675">
        <ele>1449.32471</ele>
        <time>2012-08-15T13:24:35+02:00</time>
      </trkpt>
      <trkpt lat="43.83592" lon="6.96733">
        <ele>1445.96021</ele>
        <time>2012-08-15T13:24:40+02:00</time>
      </trkpt>
      <trkpt lat="43.83602" lon="6.96714">
        <ele>1442.11499</ele>
        <time>2012-08-15T13:24:43+02:00</time>
      </trkpt>
      <trkpt lat="43.83625" lon="6.96678">
        <ele>1439.23096</ele>
        <time>2012-08-15T13:24:47+02:00</time>
      </trkpt>
      <trkpt lat="43.8365" lon="6.9665">
        <ele>1435.86621</ele>
        <time>2012-08-15T13:24:51+02:00</time>
      </trkpt>
      <trkpt lat="43.83655" lon="6.96606">
        <ele>1430.09839</ele>
        <time>2012-08-15T13:24:55+02:00</time>
      </trkpt>
      <trkpt lat="43.83654" lon="6.96586">
        <ele>1428.65649</ele>
        <time>2012-08-15T13:24:57+02:00</time>
      </trkpt>
      <trkpt lat="43.83646" lon="6.96566">
        <ele>1431.05981</ele>
        <time>2012-08-15T13:25:00+02:00</time>
      </trkpt>
      <trkpt lat="43.83643" lon="6.96563">
        <ele>1432.98218</ele>
        <time>2012-08-15T13:25:02+02:00</time>
      </trkpt>
      <trkpt lat="43.8363" lon="6.9655">
        <ele>1439.71167</ele>
        <time>2012-08-15T13:25:10+02:00</time>
      </trkpt>
      <trkpt lat="43.83623" lon="6.96542">
        <ele>1443.55688</ele>
        <time>2012-08-15T13:25:16+02:00</time>
      </trkpt>
      <trkpt lat="43.83617" lon="6.96529">
        <ele>1445.47949</ele>
        <time>2012-08-15T13:25:23+02:00</time>
      </trkpt>
      <trkpt lat="43.83611" lon="6.96517">
        <ele>1449.32471</ele>
        <time>2012-08-15T13:25:30+02:00</time>
      </trkpt>
      <trkpt lat="43.83609" lon="6.96511">
        <ele>1451.24731</ele>
        <time>2012-08-15T13:25:34+02:00</time>
      </trkpt>
      <trkpt lat="43.83608" lon="6.96505">
        <ele>1452.20874</ele>
        <time>2012-08-15T13:25:37+02:00</time>
      </trkpt>
      <trkpt lat="43.8361" lon="6.96499">
        <ele>1454.13159</ele>
        <time>2012-08-15T13:25:40+02:00</time>
      </trkpt>
      <trkpt lat="43.8362" lon="6.96489">
        <ele>1454.13159</ele>
        <time>2012-08-15T13:25:46+02:00</time>
      </trkpt>
      <trkpt lat="43.83629" lon="6.96484">
        <ele>1456.05396</ele>
        <time>2012-08-15T13:25:51+02:00</time>
      </trkpt>
      <trkpt lat="43.83641" lon="6.96471">
        <ele>1454.61206</ele>
        <time>2012-08-15T13:25:55+02:00</time>
      </trkpt>
      <trkpt lat="43.83654" lon="6.96443">
        <ele>1453.17017</ele>
        <time>2012-08-15T13:26:01+02:00</time>
      </trkpt>
      <trkpt lat="43.83658" lon="6.96433">
        <ele>1452.68945</ele>
        <time>2012-08-15T13:26:03+02:00</time>
      </trkpt>
      <trkpt lat="43.83666" lon="6.96408">
        <ele>1451.24731</ele>
        <time>2012-08-15T13:26:08+02:00</time>
      </trkpt>
      <trkpt lat="43.83666" lon="6.96393">
        <ele>1450.7666</ele>
        <time>2012-08-15T13:26:10+02:00</time>
      </trkpt>
      <trkpt lat="43.83654" lon="6.9636">
        <ele>1447.88281</ele>
        <time>2012-08-15T13:26:15+02:00</time>
      </trkpt>
      <trkpt lat="43.83648" lon="6.96329">
        <ele>1446.44092</ele>
        <time>2012-08-15T13:26:20+02:00</time>
      </trkpt>
      <trkpt lat="43.83655" lon="6.96311">
        <ele>1445.96021</ele>
        <time>2012-08-15T13:26:24+02:00</time>
      </trkpt>
      <trkpt lat="43.83661" lon="6.96296">
        <ele>1445.47949</ele>
        <time>2012-08-15T13:26:28+02:00</time>
      </trkpt>
      <trkpt lat="43.83663" lon="6.96292">
        <ele>1444.99878</ele>
        <time>2012-08-15T13:26:29+02:00</time>
      </trkpt>
      <trkpt lat="43.83671" lon="6.9628">
        <ele>1446.44092</ele>
        <time>2012-08-15T13:26:32+02:00</time>
      </trkpt>
      <trkpt lat="43.83675" lon="6.96265">
        <ele>1450.7666</ele>
        <time>2012-08-15T13:26:36+02:00</time>
      </trkpt>
      <trkpt lat="43.83677" lon="6.96239">
        <ele>1454.13159</ele>
        <time>2012-08-15T13:26:43+02:00</time>
      </trkpt>
      <trkpt lat="43.83679" lon="6.9622">
        <ele>1455.57349</ele>
        <time>2012-08-15T13:26:48+02:00</time>
      </trkpt>
      <trkpt lat="43.83681" lon="6.96195">
        <ele>1455.09277</ele>
        <time>2012-08-15T13:26:54+02:00</time>
      </trkpt>
      <trkpt lat="43.83681" lon="6.96169">
        <ele>1455.09277</ele>
        <time>2012-08-15T13:27:00+02:00</time>
      </trkpt>
      <trkpt lat="43.83677" lon="6.9615">
        <ele>1457.01538</ele>
        <time>2012-08-15T13:27:05+02:00</time>
      </trkpt>
      <trkpt lat="43.83674" lon="6.96138">
        <ele>1458.45728</ele>
        <time>2012-08-15T13:27:09+02:00</time>
      </trkpt>
      <trkpt lat="43.83671" lon="6.96124">
        <ele>1459.4187</ele>
        <time>2012-08-15T13:27:15+02:00</time>
      </trkpt>
      <trkpt lat="43.83677" lon="6.96113">
        <ele>1460.8606</ele>
        <time>2012-08-15T13:27:20+02:00</time>
      </trkpt>
      <trkpt lat="43.83684" lon="6.96103">
        <ele>1461.34131</ele>
        <time>2012-08-15T13:27:25+02:00</time>
      </trkpt>
      <trkpt lat="43.8369" lon="6.96089">
        <ele>1463.74438</ele>
        <time>2012-08-15T13:27:31+02:00</time>
      </trkpt>
      <trkpt lat="43.83694" lon="6.9607">
        <ele>1465.18652</ele>
        <time>2012-08-15T13:27:39+02:00</time>
      </trkpt>
      <trkpt lat="43.83697" lon="6.96053">
        <ele>1465.66724</ele>
        <time>2012-08-15T13:27:45+02:00</time>
      </trkpt>
      <trkpt lat="43.83697" lon="6.96037">
        <ele>1465.66724</ele>
        <time>2012-08-15T13:27:51+02:00</time>
      </trkpt>
      <trkpt lat="43.83694" lon="6.9602">
        <ele>1468.07056</ele>
        <time>2012-08-15T13:27:57+02:00</time>
      </trkpt>
      <trkpt lat="43.8369" lon="6.96002">
        <ele>1469.03198</ele>
        <time>2012-08-15T13:28:03+02:00</time>
      </trkpt>
      <trkpt lat="43.83688" lon="6.95982">
        <ele>1468.55127</ele>
        <time>2012-08-15T13:28:10+02:00</time>
      </trkpt>
      <trkpt lat="43.83684" lon="6.95963">
        <ele>1469.03198</ele>
        <time>2012-08-15T13:28:16+02:00</time>
      </trkpt>
      <trkpt lat="43.83681" lon="6.95943">
        <ele>1469.5127</ele>
        <time>2012-08-15T13:28:22+02:00</time>
      </trkpt>
      <trkpt lat="43.83681" lon="6.95925">
        <ele>1470.95459</ele>
        <time>2012-08-15T13:28:27+02:00</time>
      </trkpt>
      <trkpt lat="43.83676" lon="6.95905">
        <ele>1470.47388</ele>
        <time>2012-08-15T13:28:33+02:00</time>
      </trkpt>
      <trkpt lat="43.83675" lon="6.95901">
        <ele>1469.99316</ele>
        <time>2012-08-15T13:28:34+02:00</time>
      </trkpt>
      <trkpt lat="43.83674" lon="6.95893">
        <ele>1469.99316</ele>
        <time>2012-08-15T13:28:36+02:00</time>
      </trkpt>
      <trkpt lat="43.8368" lon="6.95873">
        <ele>1469.5127</ele>
        <time>2012-08-15T13:28:41+02:00</time>
      </trkpt>
      <trkpt lat="43.83682" lon="6.95862">
        <ele>1469.99316</ele>
        <time>2012-08-15T13:28:44+02:00</time>
      </trkpt>
      <trkpt lat="43.83685" lon="6.95841">
        <ele>1468.55127</ele>
        <time>2012-08-15T13:28:50+02:00</time>
      </trkpt>
      <trkpt lat="43.83682" lon="6.95821">
        <ele>1466.62842</ele>
        <time>2012-08-15T13:28:54+02:00</time>
      </trkpt>
      <trkpt lat="43.83673" lon="6.9579">
        <ele>1463.26392</ele>
        <time>2012-08-15T13:28:59+02:00</time>
      </trkpt>
      <trkpt lat="43.83665" lon="6.9575">
        <ele>1461.82202</ele>
        <time>2012-08-15T13:29:03+02:00</time>
      </trkpt>
      <trkpt lat="43.83665" lon="6.95729">
        <ele>1461.34131</ele>
        <time>2012-08-15T13:29:05+02:00</time>
      </trkpt>
      <trkpt lat="43.83673" lon="6.95671">
        <ele>1464.70581</ele>
        <time>2012-08-15T13:29:12+02:00</time>
      </trkpt>
      <trkpt lat="43.83675" lon="6.95649">
        <ele>1467.10913</ele>
        <time>2012-08-15T13:29:16+02:00</time>
      </trkpt>
      <trkpt lat="43.83674" lon="6.95635">
        <ele>1468.07056</ele>
        <time>2012-08-15T13:29:20+02:00</time>
      </trkpt>
      <trkpt lat="43.83667" lon="6.95617">
        <ele>1469.03198</ele>
        <time>2012-08-15T13:29:26+02:00</time>
      </trkpt>
      <trkpt lat="43.8367" lon="6.95607">
        <ele>1469.03198</ele>
        <time>2012-08-15T13:29:30+02:00</time>
      </trkpt>
      <trkpt lat="43.83671" lon="6.95605">
        <ele>1469.03198</ele>
        <time>2012-08-15T13:29:31+02:00</time>
      </trkpt>
      <trkpt lat="43.83678" lon="6.95596">
        <ele>1472.39648</ele>
        <time>2012-08-15T13:29:37+02:00</time>
      </trkpt>
      <trkpt lat="43.83688" lon="6.95583">
        <ele>1476.72241</ele>
        <time>2012-08-15T13:29:45+02:00</time>
      </trkpt>
      <trkpt lat="43.83689" lon="6.95575">
        <ele>1478.16431</ele>
        <time>2012-08-15T13:29:49+02:00</time>
      </trkpt>
      <trkpt lat="43.83691" lon="6.95567">
        <ele>1481.52881</ele>
        <time>2012-08-15T13:29:55+02:00</time>
      </trkpt>
      <trkpt lat="43.83687" lon="6.95553">
        <ele>1482.49023</ele>
        <time>2012-08-15T13:30:03+02:00</time>
      </trkpt>
      <trkpt lat="43.83685" lon="6.95542">
        <ele>1485.85498</ele>
        <time>2012-08-15T13:30:09+02:00</time>
      </trkpt>
      <trkpt lat="43.8368" lon="6.95531">
        <ele>1486.33569</ele>
        <time>2012-08-15T13:30:14+02:00</time>
      </trkpt>
      <trkpt lat="43.83674" lon="6.95517">
        <ele>1485.85498</ele>
        <time>2012-08-15T13:30:20+02:00</time>
      </trkpt>
      <trkpt lat="43.83669" lon="6.95495">
        <ele>1483.93213</ele>
        <time>2012-08-15T13:30:27+02:00</time>
      </trkpt>
      <trkpt lat="43.83663" lon="6.95474">
        <ele>1481.04834</ele>
        <time>2012-08-15T13:30:33+02:00</time>
      </trkpt>
      <trkpt lat="43.8366" lon="6.95452">
        <ele>1478.64502</ele>
        <time>2012-08-15T13:30:39+02:00</time>
      </trkpt>
      <trkpt lat="43.83656" lon="6.95435">
        <ele>1476.72241</ele>
        <time>2012-08-15T13:30:43+02:00</time>
      </trkpt>
      <trkpt lat="43.8366" lon="6.95411">
        <ele>1474.7998</ele>
        <time>2012-08-15T13:30:47+02:00</time>
      </trkpt>
      <trkpt lat="43.83661" lon="6.95404">
        <ele>1474.31909</ele>
        <time>2012-08-15T13:30:48+02:00</time>
      </trkpt>
      <trkpt lat="43.8366" lon="6.95369">
        <ele>1472.8772</ele>
        <time>2012-08-15T13:30:51+02:00</time>
      </trkpt>
      <trkpt lat="43.83658" lon="6.95327">
        <ele>1469.5127</ele>
        <time>2012-08-15T13:30:55+02:00</time>
      </trkpt>
      <trkpt lat="43.8366" lon="6.95304">
        <ele>1468.07056</ele>
        <time>2012-08-15T13:30:57+02:00</time>
      </trkpt>
      <trkpt lat="43.83658" lon="6.95282">
        <ele>1468.07056</ele>
        <time>2012-08-15T13:30:59+02:00</time>
      </trkpt>
      <trkpt lat="43.8366" lon="6.95234">
        <ele>1470.95459</ele>
        <time>2012-08-15T13:31:04+02:00</time>
      </trkpt>
      <trkpt lat="43.83664" lon="6.95204">
        <ele>1472.39648</ele>
        <time>2012-08-15T13:31:09+02:00</time>
      </trkpt>
      <trkpt lat="43.83656" lon="6.95197">
        <ele>1472.8772</ele>
        <time>2012-08-15T13:31:12+02:00</time>
      </trkpt>
      <trkpt lat="43.83647" lon="6.95191">
        <ele>1473.83838</ele>
        <time>2012-08-15T13:31:17+02:00</time>
      </trkpt>
      <trkpt lat="43.83627" lon="6.95192">
        <ele>1474.31909</ele>
        <time>2012-08-15T13:31:23+02:00</time>
      </trkpt>
      <trkpt lat="43.83613" lon="6.95188">
        <ele>1474.7998</ele>
        <time>2012-08-15T13:31:28+02:00</time>
      </trkpt>
      <trkpt lat="43.83601" lon="6.95184">
        <ele>1477.20312</ele>
        <time>2012-08-15T13:31:33+02:00</time>
      </trkpt>
      <trkpt lat="43.83587" lon="6.95176">
        <ele>1478.64502</ele>
        <time>2012-08-15T13:31:39+02:00</time>
      </trkpt>
      <trkpt lat="43.83573" lon="6.95174">
        <ele>1482.00952</ele>
        <time>2012-08-15T13:31:45+02:00</time>
      </trkpt>
      <trkpt lat="43.83557" lon="6.95174">
        <ele>1484.8938</ele>
        <time>2012-08-15T13:31:51+02:00</time>
      </trkpt>
      <trkpt lat="43.83552" lon="6.95173">
        <ele>1485.85498</ele>
        <time>2012-08-15T13:31:53+02:00</time>
      </trkpt>
      <trkpt lat="43.83541" lon="6.95163">
        <ele>1487.29688</ele>
        <time>2012-08-15T13:31:59+02:00</time>
      </trkpt>
      <trkpt lat="43.83527" lon="6.95151">
        <ele>1488.73901</ele>
        <time>2012-08-15T13:32:06+02:00</time>
      </trkpt>
      <trkpt lat="43.83512" lon="6.95143">
        <ele>1488.73901</ele>
        <time>2012-08-15T13:32:12+02:00</time>
      </trkpt>
      <trkpt lat="43.83495" lon="6.95139">
        <ele>1487.29688</ele>
        <time>2012-08-15T13:32:16+02:00</time>
      </trkpt>
      <trkpt lat="43.83472" lon="6.95138">
        <ele>1484.8938</ele>
        <time>2012-08-15T13:32:21+02:00</time>
      </trkpt>
      <trkpt lat="43.83452" lon="6.95159">
        <ele>1482.9707</ele>
        <time>2012-08-15T13:32:26+02:00</time>
      </trkpt>
      <trkpt lat="43.83431" lon="6.95189">
        <ele>1483.45142</ele>
        <time>2012-08-15T13:32:31+02:00</time>
      </trkpt>
      <trkpt lat="43.83426" lon="6.95207">
        <ele>1483.93213</ele>
        <time>2012-08-15T13:32:33+02:00</time>
      </trkpt>
      <trkpt lat="43.83419" lon="6.95244">
        <ele>1483.45142</ele>
        <time>2012-08-15T13:32:37+02:00</time>
      </trkpt>
      <trkpt lat="43.83405" lon="6.95309">
        <ele>1481.04834</ele>
        <time>2012-08-15T13:32:43+02:00</time>
      </trkpt>
      <trkpt lat="43.83399" lon="6.95332">
        <ele>1480.56763</ele>
        <time>2012-08-15T13:32:45+02:00</time>
      </trkpt>
      <trkpt lat="43.83395" lon="6.95357">
        <ele>1479.12549</ele>
        <time>2012-08-15T13:32:47+02:00</time>
      </trkpt>
      <trkpt lat="43.83395" lon="6.95381">
        <ele>1477.68359</ele>
        <time>2012-08-15T13:32:49+02:00</time>
      </trkpt>
      <trkpt lat="43.83397" lon="6.95405">
        <ele>1475.28027</ele>
        <time>2012-08-15T13:32:51+02:00</time>
      </trkpt>
      <trkpt lat="43.83398" lon="6.9543">
        <ele>1473.35791</ele>
        <time>2012-08-15T13:32:53+02:00</time>
      </trkpt>
      <trkpt lat="43.83391" lon="6.95511">
        <ele>1465.66724</ele>
        <time>2012-08-15T13:32:59+02:00</time>
      </trkpt>
      <trkpt lat="43.83383" lon="6.95573">
        <ele>1460.8606</ele>
        <time>2012-08-15T13:33:04+02:00</time>
      </trkpt>
      <trkpt lat="43.83379" lon="6.9559">
        <ele>1458.45728</ele>
        <time>2012-08-15T13:33:06+02:00</time>
      </trkpt>
      <trkpt lat="43.83358" lon="6.95615">
        <ele>1454.13159</ele>
        <time>2012-08-15T13:33:10+02:00</time>
      </trkpt>
      <trkpt lat="43.83341" lon="6.95622">
        <ele>1451.24731</ele>
        <time>2012-08-15T13:33:14+02:00</time>
      </trkpt>
      <trkpt lat="43.83339" lon="6.95621">
        <ele>1451.72803</ele>
        <time>2012-08-15T13:33:17+02:00</time>
      </trkpt>
      <trkpt lat="43.8334" lon="6.95622">
        <ele>1455.09277</ele>
        <time>2012-08-15T13:33:25+02:00</time>
      </trkpt>
      <trkpt lat="43.8334" lon="6.95626">
        <ele>1457.49609</ele>
        <time>2012-08-15T13:33:44+02:00</time>
      </trkpt>
      <trkpt lat="43.83338" lon="6.95627">
        <ele>1456.53467</ele>
        <time>2012-08-15T13:33:56+02:00</time>
      </trkpt>
      <trkpt lat="43.83338" lon="6.95628">
        <ele>1456.53467</ele>
        <time>2012-08-15T13:34:00+02:00</time>
      </trkpt>
      <trkpt lat="43.83331" lon="6.95628">
        <ele>1456.53467</ele>
        <time>2012-08-15T13:34:13+02:00</time>
      </trkpt>
      <trkpt lat="43.83321" lon="6.95631">
        <ele>1456.05396</ele>
        <time>2012-08-15T13:34:18+02:00</time>
      </trkpt>
      <trkpt lat="43.8332" lon="6.95631">
        <ele>1455.57349</ele>
        <time>2012-08-15T13:34:19+02:00</time>
      </trkpt>
      <trkpt lat="43.83324" lon="6.9563">
        <ele>1454.61206</ele>
        <time>2012-08-15T13:34:25+02:00</time>
      </trkpt>
      <trkpt lat="43.83331" lon="6.95627">
        <ele>1453.65088</ele>
        <time>2012-08-15T13:34:28+02:00</time>
      </trkpt>
      <trkpt lat="43.83336" lon="6.95625">
        <ele>1452.20874</ele>
        <time>2012-08-15T13:34:30+02:00</time>
      </trkpt>
      <trkpt lat="43.8334" lon="6.9561">
        <ele>1448.84399</ele>
        <time>2012-08-15T13:34:35+02:00</time>
      </trkpt>
      <trkpt lat="43.83349" lon="6.95588">
        <ele>1444.99878</ele>
        <time>2012-08-15T13:34:39+02:00</time>
      </trkpt>
      <trkpt lat="43.83349" lon="6.95561">
        <ele>1442.11499</ele>
        <time>2012-08-15T13:34:43+02:00</time>
      </trkpt>
      <trkpt lat="43.83346" lon="6.95545">
        <ele>1439.23096</ele>
        <time>2012-08-15T13:34:45+02:00</time>
      </trkpt>
      <trkpt lat="43.83342" lon="6.95516">
        <ele>1435.86621</ele>
        <time>2012-08-15T13:34:48+02:00</time>
      </trkpt>
      <trkpt lat="43.83329" lon="6.95484">
        <ele>1431.54028</ele>
        <time>2012-08-15T13:34:52+02:00</time>
      </trkpt>
      <trkpt lat="43.83308" lon="6.95443">
        <ele>1427.69507</ele>
        <time>2012-08-15T13:34:56+02:00</time>
      </trkpt>
      <trkpt lat="43.83291" lon="6.95407">
        <ele>1425.29175</ele>
        <time>2012-08-15T13:34:59+02:00</time>
      </trkpt>
      <trkpt lat="43.83274" lon="6.95339">
        <ele>1422.40796</ele>
        <time>2012-08-15T13:35:04+02:00</time>
      </trkpt>
      <trkpt lat="43.83259" lon="6.95262">
        <ele>1420.00464</ele>
        <time>2012-08-15T13:35:10+02:00</time>
      </trkpt>
      <trkpt lat="43.83244" lon="6.95184">
        <ele>1415.198</ele>
        <time>2012-08-15T13:35:16+02:00</time>
      </trkpt>
      <trkpt lat="43.83235" lon="6.95123">
        <ele>1412.79468</ele>
        <time>2012-08-15T13:35:21+02:00</time>
      </trkpt>
      <trkpt lat="43.83224" lon="6.95079">
        <ele>1410.39136</ele>
        <time>2012-08-15T13:35:25+02:00</time>
      </trkpt>
      <trkpt lat="43.8321" lon="6.95026">
        <ele>1408.46875</ele>
        <time>2012-08-15T13:35:30+02:00</time>
      </trkpt>
      <trkpt lat="43.83195" lon="6.94967">
        <ele>1405.58496</ele>
        <time>2012-08-15T13:35:36+02:00</time>
      </trkpt>
      <trkpt lat="43.83163" lon="6.94896">
        <ele>1405.10425</ele>
        <time>2012-08-15T13:35:45+02:00</time>
      </trkpt>
      <trkpt lat="43.83155" lon="6.94882">
        <ele>1405.58496</ele>
        <time>2012-08-15T13:35:47+02:00</time>
      </trkpt>
      <trkpt lat="43.83145" lon="6.94865">
        <ele>1406.54614</ele>
        <time>2012-08-15T13:35:50+02:00</time>
      </trkpt>
      <trkpt lat="43.83131" lon="6.94846">
        <ele>1406.54614</ele>
        <time>2012-08-15T13:35:55+02:00</time>
      </trkpt>
      <trkpt lat="43.83115" lon="6.94818">
        <ele>1408.46875</ele>
        <time>2012-08-15T13:36:03+02:00</time>
      </trkpt>
      <trkpt lat="43.83105" lon="6.94797">
        <ele>1409.43018</ele>
        <time>2012-08-15T13:36:09+02:00</time>
      </trkpt>
      <trkpt lat="43.83091" lon="6.94773">
        <ele>1410.87207</ele>
        <time>2012-08-15T13:36:16+02:00</time>
      </trkpt>
      <trkpt lat="43.83082" lon="6.94754">
        <ele>1411.35278</ele>
        <time>2012-08-15T13:36:22+02:00</time>
      </trkpt>
      <trkpt lat="43.8307" lon="6.94732">
        <ele>1411.8335</ele>
        <time>2012-08-15T13:36:29+02:00</time>
      </trkpt>
      <trkpt lat="43.83057" lon="6.94708">
        <ele>1413.75586</ele>
        <time>2012-08-15T13:36:36+02:00</time>
      </trkpt>
      <trkpt lat="43.83053" lon="6.94688">
        <ele>1415.198</ele>
        <time>2012-08-15T13:36:42+02:00</time>
      </trkpt>
      <trkpt lat="43.83052" lon="6.94678">
        <ele>1416.15918</ele>
        <time>2012-08-15T13:36:45+02:00</time>
      </trkpt>
      <trkpt lat="43.8305" lon="6.94657">
        <ele>1418.5625</ele>
        <time>2012-08-15T13:36:52+02:00</time>
      </trkpt>
      <trkpt lat="43.83045" lon="6.94637">
        <ele>1418.5625</ele>
        <time>2012-08-15T13:36:59+02:00</time>
      </trkpt>
      <trkpt lat="43.83035" lon="6.9462">
        <ele>1418.08179</ele>
        <time>2012-08-15T13:37:06+02:00</time>
      </trkpt>
      <trkpt lat="43.83024" lon="6.94603">
        <ele>1421.44653</ele>
        <time>2012-08-15T13:37:13+02:00</time>
      </trkpt>
      <trkpt lat="43.83016" lon="6.94587">
        <ele>1425.29175</ele>
        <time>2012-08-15T13:37:21+02:00</time>
      </trkpt>
      <trkpt lat="43.83009" lon="6.94575">
        <ele>1427.69507</ele>
        <time>2012-08-15T13:37:28+02:00</time>
      </trkpt>
      <trkpt lat="43.83003" lon="6.94563">
        <ele>1428.65649</ele>
        <time>2012-08-15T13:37:34+02:00</time>
      </trkpt>
      <trkpt lat="43.82996" lon="6.94552">
        <ele>1428.65649</ele>
        <time>2012-08-15T13:37:40+02:00</time>
      </trkpt>
      <trkpt lat="43.82986" lon="6.94553">
        <ele>1428.17578</ele>
        <time>2012-08-15T13:37:44+02:00</time>
      </trkpt>
      <trkpt lat="43.8296" lon="6.9456">
        <ele>1428.17578</ele>
        <time>2012-08-15T13:37:51+02:00</time>
      </trkpt>
      <trkpt lat="43.82943" lon="6.94568">
        <ele>1428.17578</ele>
        <time>2012-08-15T13:37:56+02:00</time>
      </trkpt>
      <trkpt lat="43.82932" lon="6.94573">
        <ele>1429.61768</ele>
        <time>2012-08-15T13:38:01+02:00</time>
      </trkpt>
      <trkpt lat="43.82915" lon="6.94578">
        <ele>1430.5791</ele>
        <time>2012-08-15T13:38:08+02:00</time>
      </trkpt>
      <trkpt lat="43.82901" lon="6.94585">
        <ele>1430.5791</ele>
        <time>2012-08-15T13:38:14+02:00</time>
      </trkpt>
      <trkpt lat="43.82882" lon="6.94596">
        <ele>1431.05981</ele>
        <time>2012-08-15T13:38:20+02:00</time>
      </trkpt>
      <trkpt lat="43.82868" lon="6.94603">
        <ele>1432.50171</ele>
        <time>2012-08-15T13:38:27+02:00</time>
      </trkpt>
      <trkpt lat="43.82865" lon="6.94594">
        <ele>1433.9436</ele>
        <time>2012-08-15T13:38:32+02:00</time>
      </trkpt>
      <trkpt lat="43.8286" lon="6.94588">
        <ele>1434.90503</ele>
        <time>2012-08-15T13:38:37+02:00</time>
      </trkpt>
      <trkpt lat="43.82855" lon="6.94579">
        <ele>1435.3855</ele>
        <time>2012-08-15T13:38:41+02:00</time>
      </trkpt>
      <trkpt lat="43.82852" lon="6.94555">
        <ele>1433.9436</ele>
        <time>2012-08-15T13:38:47+02:00</time>
      </trkpt>
      <trkpt lat="43.82848" lon="6.94528">
        <ele>1432.50171</ele>
        <time>2012-08-15T13:38:52+02:00</time>
      </trkpt>
      <trkpt lat="43.82845" lon="6.94509">
        <ele>1431.54028</ele>
        <time>2012-08-15T13:38:55+02:00</time>
      </trkpt>
      <trkpt lat="43.82851" lon="6.94487">
        <ele>1432.021</ele>
        <time>2012-08-15T13:38:59+02:00</time>
      </trkpt>
      <trkpt lat="43.82857" lon="6.94466">
        <ele>1432.98218</ele>
        <time>2012-08-15T13:39:05+02:00</time>
      </trkpt>
      <trkpt lat="43.82853" lon="6.94443">
        <ele>1432.021</ele>
        <time>2012-08-15T13:39:10+02:00</time>
      </trkpt>
      <trkpt lat="43.82845" lon="6.94416">
        <ele>1430.5791</ele>
        <time>2012-08-15T13:39:14+02:00</time>
      </trkpt>
      <trkpt lat="43.82848" lon="6.94385">
        <ele>1430.09839</ele>
        <time>2012-08-15T13:39:19+02:00</time>
      </trkpt>
      <trkpt lat="43.82866" lon="6.94358">
        <ele>1427.69507</ele>
        <time>2012-08-15T13:39:25+02:00</time>
      </trkpt>
      <trkpt lat="43.82873" lon="6.94354">
        <ele>1426.73389</ele>
        <time>2012-08-15T13:39:26+02:00</time>
      </trkpt>
      <trkpt lat="43.82897" lon="6.94341">
        <ele>1422.88867</ele>
        <time>2012-08-15T13:39:29+02:00</time>
      </trkpt>
      <trkpt lat="43.82922" lon="6.94313">
        <ele>1418.5625</ele>
        <time>2012-08-15T13:39:33+02:00</time>
      </trkpt>
      <trkpt lat="43.82919" lon="6.94284">
        <ele>1416.15918</ele>
        <time>2012-08-15T13:39:36+02:00</time>
      </trkpt>
      <trkpt lat="43.82912" lon="6.94232">
        <ele>1412.79468</ele>
        <time>2012-08-15T13:39:41+02:00</time>
      </trkpt>
      <trkpt lat="43.82913" lon="6.94199">
        <ele>1410.87207</ele>
        <time>2012-08-15T13:39:44+02:00</time>
      </trkpt>
      <trkpt lat="43.82907" lon="6.94169">
        <ele>1409.43018</ele>
        <time>2012-08-15T13:39:47+02:00</time>
      </trkpt>
      <trkpt lat="43.82888" lon="6.94156">
        <ele>1409.43018</ele>
        <time>2012-08-15T13:39:50+02:00</time>
      </trkpt>
      <trkpt lat="43.82848" lon="6.94138">
        <ele>1409.43018</ele>
        <time>2012-08-15T13:39:57+02:00</time>
      </trkpt>
      <trkpt lat="43.82838" lon="6.94134">
        <ele>1410.39136</ele>
        <time>2012-08-15T13:39:59+02:00</time>
      </trkpt>
      <trkpt lat="43.82824" lon="6.94127">
        <ele>1411.8335</ele>
        <time>2012-08-15T13:40:03+02:00</time>
      </trkpt>
      <trkpt lat="43.82815" lon="6.94121">
        <ele>1412.79468</ele>
        <time>2012-08-15T13:40:06+02:00</time>
      </trkpt>
      <trkpt lat="43.82791" lon="6.94116">
        <ele>1414.71729</ele>
        <time>2012-08-15T13:40:13+02:00</time>
      </trkpt>
      <trkpt lat="43.82758" lon="6.94113">
        <ele>1417.12061</ele>
        <time>2012-08-15T13:40:22+02:00</time>
      </trkpt>
      <trkpt lat="43.82735" lon="6.9411">
        <ele>1418.08179</ele>
        <time>2012-08-15T13:40:29+02:00</time>
      </trkpt>
      <trkpt lat="43.82714" lon="6.94109">
        <ele>1420.96606</ele>
        <time>2012-08-15T13:40:36+02:00</time>
      </trkpt>
      <trkpt lat="43.82699" lon="6.94111">
        <ele>1422.40796</ele>
        <time>2012-08-15T13:40:42+02:00</time>
      </trkpt>
      <trkpt lat="43.82684" lon="6.94113">
        <ele>1424.33057</ele>
        <time>2012-08-15T13:40:48+02:00</time>
      </trkpt>
      <trkpt lat="43.82669" lon="6.94114">
        <ele>1425.29175</ele>
        <time>2012-08-15T13:40:53+02:00</time>
      </trkpt>
      <trkpt lat="43.82651" lon="6.94105">
        <ele>1425.29175</ele>
        <time>2012-08-15T13:40:59+02:00</time>
      </trkpt>
      <trkpt lat="43.8263" lon="6.94091">
        <ele>1425.29175</ele>
        <time>2012-08-15T13:41:05+02:00</time>
      </trkpt>
      <trkpt lat="43.82619" lon="6.94074">
        <ele>1425.29175</ele>
        <time>2012-08-15T13:41:10+02:00</time>
      </trkpt>
      <trkpt lat="43.82616" lon="6.94054">
        <ele>1424.81128</ele>
        <time>2012-08-15T13:41:14+02:00</time>
      </trkpt>
      <trkpt lat="43.82621" lon="6.94035">
        <ele>1425.29175</ele>
        <time>2012-08-15T13:41:18+02:00</time>
      </trkpt>
      <trkpt lat="43.82632" lon="6.94018">
        <ele>1426.25317</ele>
        <time>2012-08-15T13:41:23+02:00</time>
      </trkpt>
      <trkpt lat="43.82634" lon="6.93997">
        <ele>1427.2146</ele>
        <time>2012-08-15T13:41:28+02:00</time>
      </trkpt>
      <trkpt lat="43.82627" lon="6.93976">
        <ele>1425.77246</ele>
        <time>2012-08-15T13:41:32+02:00</time>
      </trkpt>
      <trkpt lat="43.8262" lon="6.93957">
        <ele>1424.81128</ele>
        <time>2012-08-15T13:41:35+02:00</time>
      </trkpt>
      <trkpt lat="43.82619" lon="6.93933">
        <ele>1423.84985</ele>
        <time>2012-08-15T13:41:38+02:00</time>
      </trkpt>
      <trkpt lat="43.82617" lon="6.93914">
        <ele>1422.40796</ele>
        <time>2012-08-15T13:41:40+02:00</time>
      </trkpt>
      <trkpt lat="43.8262" lon="6.93862">
        <ele>1420.48535</ele>
        <time>2012-08-15T13:41:45+02:00</time>
      </trkpt>
      <trkpt lat="43.82618" lon="6.93825">
        <ele>1417.60107</ele>
        <time>2012-08-15T13:41:48+02:00</time>
      </trkpt>
      <trkpt lat="43.82618" lon="6.93731">
        <ele>1408.46875</ele>
        <time>2012-08-15T13:41:55+02:00</time>
      </trkpt>
      <trkpt lat="43.82616" lon="6.93645">
        <ele>1397.89429</ele>
        <time>2012-08-15T13:42:01+02:00</time>
      </trkpt>
      <trkpt lat="43.82614" lon="6.93618">
        <ele>1395.01025</ele>
        <time>2012-08-15T13:42:03+02:00</time>
      </trkpt>
      <trkpt lat="43.82604" lon="6.9357">
        <ele>1389.72314</ele>
        <time>2012-08-15T13:42:07+02:00</time>
      </trkpt>
      <trkpt lat="43.82596" lon="6.93515">
        <ele>1382.99365</ele>
        <time>2012-08-15T13:42:11+02:00</time>
      </trkpt>
      <trkpt lat="43.8258" lon="6.93469">
        <ele>1378.18726</ele>
        <time>2012-08-15T13:42:15+02:00</time>
      </trkpt>
      <trkpt lat="43.82576" lon="6.93433">
        <ele>1373.86133</ele>
        <time>2012-08-15T13:42:18+02:00</time>
      </trkpt>
      <trkpt lat="43.82579" lon="6.93405">
        <ele>1370.49658</ele>
        <time>2012-08-15T13:42:20+02:00</time>
      </trkpt>
      <trkpt lat="43.82594" lon="6.93353">
        <ele>1365.20947</ele>
        <time>2012-08-15T13:42:24+02:00</time>
      </trkpt>
      <trkpt lat="43.82597" lon="6.9333">
        <ele>1363.28687</ele>
        <time>2012-08-15T13:42:26+02:00</time>
      </trkpt>
      <trkpt lat="43.82595" lon="6.93271">
        <ele>1359.92212</ele>
        <time>2012-08-15T13:42:32+02:00</time>
      </trkpt>
      <trkpt lat="43.82588" lon="6.93231">
        <ele>1360.88354</ele>
        <time>2012-08-15T13:42:37+02:00</time>
      </trkpt>
      <trkpt lat="43.82582" lon="6.93214">
        <ele>1362.32544</ele>
        <time>2012-08-15T13:42:40+02:00</time>
      </trkpt>
      <trkpt lat="43.82568" lon="6.93197">
        <ele>1363.76733</ele>
        <time>2012-08-15T13:42:45+02:00</time>
      </trkpt>
      <trkpt lat="43.82557" lon="6.93198">
        <ele>1364.24805</ele>
        <time>2012-08-15T13:42:48+02:00</time>
      </trkpt>
      <trkpt lat="43.82542" lon="6.93212">
        <ele>1366.17065</ele>
        <time>2012-08-15T13:42:54+02:00</time>
      </trkpt>
      <trkpt lat="43.82534" lon="6.93219">
        <ele>1367.13208</ele>
        <time>2012-08-15T13:42:58+02:00</time>
      </trkpt>
      <trkpt lat="43.82523" lon="6.93238">
        <ele>1368.57397</ele>
        <time>2012-08-15T13:43:04+02:00</time>
      </trkpt>
      <trkpt lat="43.82517" lon="6.93269">
        <ele>1370.49658</ele>
        <time>2012-08-15T13:43:11+02:00</time>
      </trkpt>
      <trkpt lat="43.82516" lon="6.93299">
        <ele>1371.45776</ele>
        <time>2012-08-15T13:43:17+02:00</time>
      </trkpt>
      <trkpt lat="43.8252" lon="6.9334">
        <ele>1372.41943</ele>
        <time>2012-08-15T13:43:25+02:00</time>
      </trkpt>
      <trkpt lat="43.82518" lon="6.93354">
        <ele>1372.90015</ele>
        <time>2012-08-15T13:43:28+02:00</time>
      </trkpt>
      <trkpt lat="43.82504" lon="6.93358">
        <ele>1373.38086</ele>
        <time>2012-08-15T13:43:32+02:00</time>
      </trkpt>
      <trkpt lat="43.82501" lon="6.93358">
        <ele>1373.38086</ele>
        <time>2012-08-15T13:43:33+02:00</time>
      </trkpt>
      <trkpt lat="43.82479" lon="6.9336">
        <ele>1375.30322</ele>
        <time>2012-08-15T13:43:40+02:00</time>
      </trkpt>
      <trkpt lat="43.82466" lon="6.93356">
        <ele>1376.26465</ele>
        <time>2012-08-15T13:43:44+02:00</time>
      </trkpt>
      <trkpt lat="43.82456" lon="6.93349">
        <ele>1378.18726</ele>
        <time>2012-08-15T13:43:50+02:00</time>
      </trkpt>
      <trkpt lat="43.82449" lon="6.93343">
        <ele>1378.66797</ele>
        <time>2012-08-15T13:43:55+02:00</time>
      </trkpt>
      <trkpt lat="43.82438" lon="6.93337">
        <ele>1379.62915</ele>
        <time>2012-08-15T13:44:01+02:00</time>
      </trkpt>
      <trkpt lat="43.82435" lon="6.93337">
        <ele>1380.59058</ele>
        <time>2012-08-15T13:44:03+02:00</time>
      </trkpt>
      <trkpt lat="43.8243" lon="6.9335">
        <ele>1382.51318</ele>
        <time>2012-08-15T13:44:09+02:00</time>
      </trkpt>
      <trkpt lat="43.8243" lon="6.93353">
        <ele>1382.51318</ele>
        <time>2012-08-15T13:44:10+02:00</time>
      </trkpt>
      <trkpt lat="43.82434" lon="6.93379">
        <ele>1382.51318</ele>
        <time>2012-08-15T13:44:17+02:00</time>
      </trkpt>
      <trkpt lat="43.82436" lon="6.93402">
        <ele>1382.51318</ele>
        <time>2012-08-15T13:44:22+02:00</time>
      </trkpt>
      <trkpt lat="43.82439" lon="6.93435">
        <ele>1383.47437</ele>
        <time>2012-08-15T13:44:31+02:00</time>
      </trkpt>
      <trkpt lat="43.82446" lon="6.93451">
        <ele>1385.39697</ele>
        <time>2012-08-15T13:44:37+02:00</time>
      </trkpt>
      <trkpt lat="43.82447" lon="6.93464">
        <ele>1386.83887</ele>
        <time>2012-08-15T13:44:42+02:00</time>
      </trkpt>
      <trkpt lat="43.82441" lon="6.93473">
        <ele>1387.80029</ele>
        <time>2012-08-15T13:44:47+02:00</time>
      </trkpt>
      <trkpt lat="43.8243" lon="6.93472">
        <ele>1388.28125</ele>
        <time>2012-08-15T13:44:52+02:00</time>
      </trkpt>
      <trkpt lat="43.82415" lon="6.93465">
        <ele>1388.28125</ele>
        <time>2012-08-15T13:44:58+02:00</time>
      </trkpt>
      <trkpt lat="43.82399" lon="6.93456">
        <ele>1387.80029</ele>
        <time>2012-08-15T13:45:03+02:00</time>
      </trkpt>
      <trkpt lat="43.82377" lon="6.93441">
        <ele>1387.80029</ele>
        <time>2012-08-15T13:45:10+02:00</time>
      </trkpt>
      <trkpt lat="43.82369" lon="6.93423">
        <ele>1388.28125</ele>
        <time>2012-08-15T13:45:15+02:00</time>
      </trkpt>
      <trkpt lat="43.82355" lon="6.93407">
        <ele>1388.28125</ele>
        <time>2012-08-15T13:45:21+02:00</time>
      </trkpt>
      <trkpt lat="43.82344" lon="6.93391">
        <ele>1390.20386</ele>
        <time>2012-08-15T13:45:28+02:00</time>
      </trkpt>
      <trkpt lat="43.82333" lon="6.93373">
        <ele>1390.68433</ele>
        <time>2012-08-15T13:45:35+02:00</time>
      </trkpt>
      <trkpt lat="43.82321" lon="6.93354">
        <ele>1390.68433</ele>
        <time>2012-08-15T13:45:41+02:00</time>
      </trkpt>
      <trkpt lat="43.82309" lon="6.93342">
        <ele>1391.64575</ele>
        <time>2012-08-15T13:45:47+02:00</time>
      </trkpt>
      <trkpt lat="43.82299" lon="6.93337">
        <ele>1392.12646</ele>
        <time>2012-08-15T13:45:52+02:00</time>
      </trkpt>
      <trkpt lat="43.82293" lon="6.93332">
        <ele>1393.08765</ele>
        <time>2012-08-15T13:45:56+02:00</time>
      </trkpt>
      <trkpt lat="43.82286" lon="6.93334">
        <ele>1394.04907</ele>
        <time>2012-08-15T13:46:00+02:00</time>
      </trkpt>
      <trkpt lat="43.82279" lon="6.93339">
        <ele>1395.01025</ele>
        <time>2012-08-15T13:46:04+02:00</time>
      </trkpt>
      <trkpt lat="43.82279" lon="6.93353">
        <ele>1395.49097</ele>
        <time>2012-08-15T13:46:09+02:00</time>
      </trkpt>
      <trkpt lat="43.82283" lon="6.93361">
        <ele>1395.97168</ele>
        <time>2012-08-15T13:46:12+02:00</time>
      </trkpt>
      <trkpt lat="43.82294" lon="6.93381">
        <ele>1399.33618</ele>
        <time>2012-08-15T13:46:20+02:00</time>
      </trkpt>
      <trkpt lat="43.82298" lon="6.93398">
        <ele>1400.77808</ele>
        <time>2012-08-15T13:46:26+02:00</time>
      </trkpt>
      <trkpt lat="43.82301" lon="6.9342">
        <ele>1402.21997</ele>
        <time>2012-08-15T13:46:34+02:00</time>
      </trkpt>
      <trkpt lat="43.82302" lon="6.93422">
        <ele>1402.70068</ele>
        <time>2012-08-15T13:46:35+02:00</time>
      </trkpt>
      <trkpt lat="43.82301" lon="6.93442">
        <ele>1404.62354</ele>
        <time>2012-08-15T13:46:43+02:00</time>
      </trkpt>
      <trkpt lat="43.82298" lon="6.93461">
        <ele>1407.02686</ele>
        <time>2012-08-15T13:46:51+02:00</time>
      </trkpt>
      <trkpt lat="43.82298" lon="6.93478">
        <ele>1408.46875</ele>
        <time>2012-08-15T13:46:58+02:00</time>
      </trkpt>
      <trkpt lat="43.823" lon="6.93493">
        <ele>1410.39136</ele>
        <time>2012-08-15T13:47:04+02:00</time>
      </trkpt>
      <trkpt lat="43.82306" lon="6.93505">
        <ele>1411.35278</ele>
        <time>2012-08-15T13:47:09+02:00</time>
      </trkpt>
      <trkpt lat="43.82316" lon="6.93527">
        <ele>1410.87207</ele>
        <time>2012-08-15T13:47:16+02:00</time>
      </trkpt>
      <trkpt lat="43.82323" lon="6.93548">
        <ele>1411.35278</ele>
        <time>2012-08-15T13:47:23+02:00</time>
      </trkpt>
      <trkpt lat="43.82331" lon="6.93574">
        <ele>1412.79468</ele>
        <time>2012-08-15T13:47:32+02:00</time>
      </trkpt>
      <trkpt lat="43.8234" lon="6.93594">
        <ele>1415.198</ele>
        <time>2012-08-15T13:47:39+02:00</time>
      </trkpt>
      <trkpt lat="43.82347" lon="6.93618">
        <ele>1418.08179</ele>
        <time>2012-08-15T13:47:47+02:00</time>
      </trkpt>
      <trkpt lat="43.82352" lon="6.93641">
        <ele>1417.60107</ele>
        <time>2012-08-15T13:47:54+02:00</time>
      </trkpt>
      <trkpt lat="43.8236" lon="6.93664">
        <ele>1419.52393</ele>
        <time>2012-08-15T13:48:02+02:00</time>
      </trkpt>
      <trkpt lat="43.8237" lon="6.93681">
        <ele>1422.40796</ele>
        <time>2012-08-15T13:48:09+02:00</time>
      </trkpt>
      <trkpt lat="43.82382" lon="6.937">
        <ele>1424.33057</ele>
        <time>2012-08-15T13:48:17+02:00</time>
      </trkpt>
      <trkpt lat="43.82382" lon="6.93713">
        <ele>1425.29175</ele>
        <time>2012-08-15T13:48:22+02:00</time>
      </trkpt>
      <trkpt lat="43.82372" lon="6.93714">
        <ele>1425.77246</ele>
        <time>2012-08-15T13:48:27+02:00</time>
      </trkpt>
      <trkpt lat="43.82365" lon="6.9371">
        <ele>1425.77246</ele>
        <time>2012-08-15T13:48:30+02:00</time>
      </trkpt>
      <trkpt lat="43.82352" lon="6.93699">
        <ele>1425.29175</ele>
        <time>2012-08-15T13:48:36+02:00</time>
      </trkpt>
      <trkpt lat="43.82333" lon="6.93689">
        <ele>1425.29175</ele>
        <time>2012-08-15T13:48:44+02:00</time>
      </trkpt>
      <trkpt lat="43.82321" lon="6.93684">
        <ele>1428.17578</ele>
        <time>2012-08-15T13:48:51+02:00</time>
      </trkpt>
      <trkpt lat="43.82307" lon="6.93684">
        <ele>1431.54028</ele>
        <time>2012-08-15T13:48:58+02:00</time>
      </trkpt>
      <trkpt lat="43.82289" lon="6.93688">
        <ele>1432.98218</ele>
        <time>2012-08-15T13:49:06+02:00</time>
      </trkpt>
      <trkpt lat="43.82277" lon="6.93682">
        <ele>1432.98218</ele>
        <time>2012-08-15T13:49:12+02:00</time>
      </trkpt>
      <trkpt lat="43.82268" lon="6.93677">
        <ele>1433.9436</ele>
        <time>2012-08-15T13:49:17+02:00</time>
      </trkpt>
      <trkpt lat="43.82263" lon="6.93678">
        <ele>1434.90503</ele>
        <time>2012-08-15T13:49:20+02:00</time>
      </trkpt>
      <trkpt lat="43.82261" lon="6.93691">
        <ele>1435.86621</ele>
        <time>2012-08-15T13:49:25+02:00</time>
      </trkpt>
      <trkpt lat="43.82263" lon="6.93697">
        <ele>1436.34717</ele>
        <time>2012-08-15T13:49:27+02:00</time>
      </trkpt>
      <trkpt lat="43.82281" lon="6.93718">
        <ele>1437.30835</ele>
        <time>2012-08-15T13:49:35+02:00</time>
      </trkpt>
      <trkpt lat="43.82291" lon="6.93737">
        <ele>1438.26978</ele>
        <time>2012-08-15T13:49:41+02:00</time>
      </trkpt>
      <trkpt lat="43.82296" lon="6.93764">
        <ele>1438.26978</ele>
        <time>2012-08-15T13:49:48+02:00</time>
      </trkpt>
      <trkpt lat="43.82301" lon="6.93785">
        <ele>1439.23096</ele>
        <time>2012-08-15T13:49:54+02:00</time>
      </trkpt>
      <trkpt lat="43.82302" lon="6.93806">
        <ele>1438.26978</ele>
        <time>2012-08-15T13:49:59+02:00</time>
      </trkpt>
      <trkpt lat="43.82306" lon="6.93835">
        <ele>1438.75049</ele>
        <time>2012-08-15T13:50:05+02:00</time>
      </trkpt>
      <trkpt lat="43.82309" lon="6.93861">
        <ele>1441.15356</ele>
        <time>2012-08-15T13:50:13+02:00</time>
      </trkpt>
      <trkpt lat="43.82311" lon="6.93881">
        <ele>1442.5957</ele>
        <time>2012-08-15T13:50:19+02:00</time>
      </trkpt>
      <trkpt lat="43.82313" lon="6.93908">
        <ele>1444.51807</ele>
        <time>2012-08-15T13:50:27+02:00</time>
      </trkpt>
      <trkpt lat="43.82317" lon="6.93924">
        <ele>1446.44092</ele>
        <time>2012-08-15T13:50:33+02:00</time>
      </trkpt>
      <trkpt lat="43.82326" lon="6.93938">
        <ele>1447.88281</ele>
        <time>2012-08-15T13:50:39+02:00</time>
      </trkpt>
      <trkpt lat="43.82339" lon="6.93958">
        <ele>1449.32471</ele>
        <time>2012-08-15T13:50:46+02:00</time>
      </trkpt>
      <trkpt lat="43.82348" lon="6.93979">
        <ele>1450.28613</ele>
        <time>2012-08-15T13:50:52+02:00</time>
      </trkpt>
      <trkpt lat="43.8236" lon="6.94006">
        <ele>1451.72803</ele>
        <time>2012-08-15T13:51:00+02:00</time>
      </trkpt>
      <trkpt lat="43.82369" lon="6.9402">
        <ele>1453.17017</ele>
        <time>2012-08-15T13:51:06+02:00</time>
      </trkpt>
      <trkpt lat="43.82379" lon="6.94034">
        <ele>1451.72803</ele>
        <time>2012-08-15T13:51:10+02:00</time>
      </trkpt>
      <trkpt lat="43.82391" lon="6.94056">
        <ele>1449.80542</ele>
        <time>2012-08-15T13:51:13+02:00</time>
      </trkpt>
      <trkpt lat="43.82402" lon="6.94068">
        <ele>1448.36328</ele>
        <time>2012-08-15T13:51:15+02:00</time>
      </trkpt>
      <trkpt lat="43.82432" lon="6.94095">
        <ele>1443.55688</ele>
        <time>2012-08-15T13:51:19+02:00</time>
      </trkpt>
      <trkpt lat="43.8244" lon="6.94101">
        <ele>1443.07617</ele>
        <time>2012-08-15T13:51:20+02:00</time>
      </trkpt>
      <trkpt lat="43.82502" lon="6.94124">
        <ele>1438.75049</ele>
        <time>2012-08-15T13:51:27+02:00</time>
      </trkpt>
      <trkpt lat="43.8251" lon="6.94128">
        <ele>1438.75049</ele>
        <time>2012-08-15T13:51:28+02:00</time>
      </trkpt>
      <trkpt lat="43.82523" lon="6.94137">
        <ele>1438.75049</ele>
        <time>2012-08-15T13:51:30+02:00</time>
      </trkpt>
      <trkpt lat="43.82538" lon="6.94153">
        <ele>1440.19238</ele>
        <time>2012-08-15T13:51:34+02:00</time>
      </trkpt>
      <trkpt lat="43.82543" lon="6.94158">
        <ele>1441.15356</ele>
        <time>2012-08-15T13:51:37+02:00</time>
      </trkpt>
      <trkpt lat="43.82552" lon="6.94166">
        <ele>1442.5957</ele>
        <time>2012-08-15T13:51:43+02:00</time>
      </trkpt>
      <trkpt lat="43.82554" lon="6.94173">
        <ele>1443.07617</ele>
        <time>2012-08-15T13:51:46+02:00</time>
      </trkpt>
      <trkpt lat="43.82547" lon="6.94181">
        <ele>1443.55688</ele>
        <time>2012-08-15T13:51:51+02:00</time>
      </trkpt>
      <trkpt lat="43.82545" lon="6.9418">
        <ele>1443.55688</ele>
        <time>2012-08-15T13:51:52+02:00</time>
      </trkpt>
      <trkpt lat="43.82522" lon="6.94178">
        <ele>1443.55688</ele>
        <time>2012-08-15T13:52:00+02:00</time>
      </trkpt>
      <trkpt lat="43.82505" lon="6.94176">
        <ele>1444.99878</ele>
        <time>2012-08-15T13:52:06+02:00</time>
      </trkpt>
      <trkpt lat="43.82489" lon="6.94179">
        <ele>1446.92139</ele>
        <time>2012-08-15T13:52:13+02:00</time>
      </trkpt>
      <trkpt lat="43.82468" lon="6.94181">
        <ele>1448.84399</ele>
        <time>2012-08-15T13:52:21+02:00</time>
      </trkpt>
      <trkpt lat="43.82445" lon="6.9418">
        <ele>1449.80542</ele>
        <time>2012-08-15T13:52:30+02:00</time>
      </trkpt>
      <trkpt lat="43.82425" lon="6.94177">
        <ele>1452.20874</ele>
        <time>2012-08-15T13:52:39+02:00</time>
      </trkpt>
      <trkpt lat="43.82415" lon="6.94175">
        <ele>1453.65088</ele>
        <time>2012-08-15T13:52:44+02:00</time>
      </trkpt>
      <trkpt lat="43.82403" lon="6.94174">
        <ele>1454.61206</ele>
        <time>2012-08-15T13:52:50+02:00</time>
      </trkpt>
      <trkpt lat="43.82391" lon="6.94174">
        <ele>1455.57349</ele>
        <time>2012-08-15T13:52:56+02:00</time>
      </trkpt>
      <trkpt lat="43.82374" lon="6.9418">
        <ele>1457.49609</ele>
        <time>2012-08-15T13:53:04+02:00</time>
      </trkpt>
      <trkpt lat="43.82362" lon="6.94185">
        <ele>1458.45728</ele>
        <time>2012-08-15T13:53:10+02:00</time>
      </trkpt>
      <trkpt lat="43.82349" lon="6.94176">
        <ele>1457.01538</ele>
        <time>2012-08-15T13:53:15+02:00</time>
      </trkpt>
      <trkpt lat="43.82337" lon="6.94152">
        <ele>1456.05396</ele>
        <time>2012-08-15T13:53:22+02:00</time>
      </trkpt>
      <trkpt lat="43.82326" lon="6.94127">
        <ele>1455.57349</ele>
        <time>2012-08-15T13:53:29+02:00</time>
      </trkpt>
      <trkpt lat="43.82322" lon="6.94099">
        <ele>1456.05396</ele>
        <time>2012-08-15T13:53:36+02:00</time>
      </trkpt>
      <trkpt lat="43.82331" lon="6.94087">
        <ele>1457.01538</ele>
        <time>2012-08-15T13:53:41+02:00</time>
      </trkpt>
      <trkpt lat="43.82338" lon="6.94082">
        <ele>1458.45728</ele>
        <time>2012-08-15T13:53:44+02:00</time>
      </trkpt>
      <trkpt lat="43.8234" lon="6.94062">
        <ele>1458.93799</ele>
        <time>2012-08-15T13:53:50+02:00</time>
      </trkpt>
      <trkpt lat="43.82331" lon="6.94053">
        <ele>1459.4187</ele>
        <time>2012-08-15T13:53:54+02:00</time>
      </trkpt>
      <trkpt lat="43.82306" lon="6.94044">
        <ele>1460.37988</ele>
        <time>2012-08-15T13:54:03+02:00</time>
      </trkpt>
      <trkpt lat="43.82288" lon="6.94026">
        <ele>1460.8606</ele>
        <time>2012-08-15T13:54:11+02:00</time>
      </trkpt>
      <trkpt lat="43.82278" lon="6.94005">
        <ele>1461.34131</ele>
        <time>2012-08-15T13:54:18+02:00</time>
      </trkpt>
      <trkpt lat="43.82271" lon="6.93992">
        <ele>1461.34131</ele>
        <time>2012-08-15T13:54:22+02:00</time>
      </trkpt>
      <trkpt lat="43.82259" lon="6.93993">
        <ele>1461.82202</ele>
        <time>2012-08-15T13:54:27+02:00</time>
      </trkpt>
      <trkpt lat="43.82258" lon="6.93996">
        <ele>1461.82202</ele>
        <time>2012-08-15T13:54:28+02:00</time>
      </trkpt>
      <trkpt lat="43.82258" lon="6.94018">
        <ele>1464.2251</ele>
        <time>2012-08-15T13:54:35+02:00</time>
      </trkpt>
      <trkpt lat="43.82264" lon="6.9404">
        <ele>1466.62842</ele>
        <time>2012-08-15T13:54:42+02:00</time>
      </trkpt>
      <trkpt lat="43.82271" lon="6.94062">
        <ele>1467.5896</ele>
        <time>2012-08-15T13:54:49+02:00</time>
      </trkpt>
      <trkpt lat="43.82276" lon="6.94088">
        <ele>1468.55127</ele>
        <time>2012-08-15T13:54:57+02:00</time>
      </trkpt>
      <trkpt lat="43.82273" lon="6.94104">
        <ele>1469.99316</ele>
        <time>2012-08-15T13:55:02+02:00</time>
      </trkpt>
      <trkpt lat="43.82268" lon="6.94124">
        <ele>1470.47388</ele>
        <time>2012-08-15T13:55:07+02:00</time>
      </trkpt>
      <trkpt lat="43.82264" lon="6.94151">
        <ele>1471.43506</ele>
        <time>2012-08-15T13:55:13+02:00</time>
      </trkpt>
      <trkpt lat="43.82266" lon="6.94172">
        <ele>1471.43506</ele>
        <time>2012-08-15T13:55:18+02:00</time>
      </trkpt>
      <trkpt lat="43.82272" lon="6.94202">
        <ele>1473.83838</ele>
        <time>2012-08-15T13:55:26+02:00</time>
      </trkpt>
      <trkpt lat="43.82279" lon="6.9422">
        <ele>1474.31909</ele>
        <time>2012-08-15T13:55:32+02:00</time>
      </trkpt>
      <trkpt lat="43.82287" lon="6.94249">
        <ele>1476.2417</ele>
        <time>2012-08-15T13:55:41+02:00</time>
      </trkpt>
      <trkpt lat="43.82294" lon="6.94275">
        <ele>1477.20312</ele>
        <time>2012-08-15T13:55:49+02:00</time>
      </trkpt>
      <trkpt lat="43.82301" lon="6.94299">
        <ele>1477.20312</ele>
        <time>2012-08-15T13:55:57+02:00</time>
      </trkpt>
      <trkpt lat="43.82307" lon="6.94316">
        <ele>1478.64502</ele>
        <time>2012-08-15T13:56:03+02:00</time>
      </trkpt>
      <trkpt lat="43.82303" lon="6.9435">
        <ele>1479.12549</ele>
        <time>2012-08-15T13:56:12+02:00</time>
      </trkpt>
      <trkpt lat="43.82298" lon="6.94378">
        <ele>1481.04834</ele>
        <time>2012-08-15T13:56:18+02:00</time>
      </trkpt>
      <trkpt lat="43.82301" lon="6.944">
        <ele>1482.00952</ele>
        <time>2012-08-15T13:56:24+02:00</time>
      </trkpt>
      <trkpt lat="43.82303" lon="6.94433">
        <ele>1482.9707</ele>
        <time>2012-08-15T13:56:32+02:00</time>
      </trkpt>
      <trkpt lat="43.823" lon="6.94453">
        <ele>1484.41309</ele>
        <time>2012-08-15T13:56:37+02:00</time>
      </trkpt>
      <trkpt lat="43.82297" lon="6.94486">
        <ele>1486.81616</ele>
        <time>2012-08-15T13:56:46+02:00</time>
      </trkpt>
      <trkpt lat="43.82293" lon="6.94516">
        <ele>1488.2583</ele>
        <time>2012-08-15T13:56:54+02:00</time>
      </trkpt>
      <trkpt lat="43.82288" lon="6.94536">
        <ele>1488.73901</ele>
        <time>2012-08-15T13:56:58+02:00</time>
      </trkpt>
      <trkpt lat="43.82284" lon="6.94564">
        <ele>1490.18091</ele>
        <time>2012-08-15T13:57:03+02:00</time>
      </trkpt>
      <trkpt lat="43.82287" lon="6.94597">
        <ele>1489.7002</ele>
        <time>2012-08-15T13:57:10+02:00</time>
      </trkpt>
      <trkpt lat="43.82285" lon="6.94628">
        <ele>1490.18091</ele>
        <time>2012-08-15T13:57:17+02:00</time>
      </trkpt>
      <trkpt lat="43.82273" lon="6.94653">
        <ele>1491.14209</ele>
        <time>2012-08-15T13:57:24+02:00</time>
      </trkpt>
      <trkpt lat="43.82258" lon="6.94668">
        <ele>1492.10352</ele>
        <time>2012-08-15T13:57:30+02:00</time>
      </trkpt>
      <trkpt lat="43.82235" lon="6.94673">
        <ele>1492.58423</ele>
        <time>2012-08-15T13:57:37+02:00</time>
      </trkpt>
      <trkpt lat="43.8222" lon="6.94687">
        <ele>1493.54541</ele>
        <time>2012-08-15T13:57:43+02:00</time>
      </trkpt>
      <trkpt lat="43.82219" lon="6.94704">
        <ele>1493.54541</ele>
        <time>2012-08-15T13:57:46+02:00</time>
      </trkpt>
      <trkpt lat="43.82226" lon="6.94725">
        <ele>1492.58423</ele>
        <time>2012-08-15T13:57:50+02:00</time>
      </trkpt>
      <trkpt lat="43.82247" lon="6.94756">
        <ele>1494.50659</ele>
        <time>2012-08-15T13:57:57+02:00</time>
      </trkpt>
      <trkpt lat="43.8226" lon="6.94776">
        <ele>1495.94873</ele>
        <time>2012-08-15T13:58:02+02:00</time>
      </trkpt>
      <trkpt lat="43.8227" lon="6.94796">
        <ele>1497.39062</ele>
        <time>2012-08-15T13:58:09+02:00</time>
      </trkpt>
      <trkpt lat="43.82271" lon="6.94815">
        <ele>1497.87134</ele>
        <time>2012-08-15T13:58:15+02:00</time>
      </trkpt>
      <trkpt lat="43.82267" lon="6.94839">
        <ele>1498.35181</ele>
        <time>2012-08-15T13:58:22+02:00</time>
      </trkpt>
      <trkpt lat="43.82259" lon="6.9486">
        <ele>1500.2749</ele>
        <time>2012-08-15T13:58:29+02:00</time>
      </trkpt>
      <trkpt lat="43.82252" lon="6.94879">
        <ele>1500.75537</ele>
        <time>2012-08-15T13:58:35+02:00</time>
      </trkpt>
      <trkpt lat="43.8225" lon="6.94905">
        <ele>1501.7168</ele>
        <time>2012-08-15T13:58:41+02:00</time>
      </trkpt>
      <trkpt lat="43.82254" lon="6.94928">
        <ele>1502.67798</ele>
        <time>2012-08-15T13:58:47+02:00</time>
      </trkpt>
      <trkpt lat="43.82254" lon="6.94958">
        <ele>1503.6394</ele>
        <time>2012-08-15T13:58:55+02:00</time>
      </trkpt>
      <trkpt lat="43.82248" lon="6.94993">
        <ele>1505.0813</ele>
        <time>2012-08-15T13:59:04+02:00</time>
      </trkpt>
      <trkpt lat="43.82237" lon="6.95031">
        <ele>1505.56201</ele>
        <time>2012-08-15T13:59:13+02:00</time>
      </trkpt>
      <trkpt lat="43.82225" lon="6.95061">
        <ele>1506.52319</ele>
        <time>2012-08-15T13:59:21+02:00</time>
      </trkpt>
      <trkpt lat="43.82216" lon="6.95086">
        <ele>1508.4458</ele>
        <time>2012-08-15T13:59:28+02:00</time>
      </trkpt>
      <trkpt lat="43.82209" lon="6.95115">
        <ele>1509.8877</ele>
        <time>2012-08-15T13:59:35+02:00</time>
      </trkpt>
      <trkpt lat="43.82198" lon="6.95141">
        <ele>1510.36841</ele>
        <time>2012-08-15T13:59:42+02:00</time>
      </trkpt>
      <trkpt lat="43.82191" lon="6.95168">
        <ele>1511.81055</ele>
        <time>2012-08-15T13:59:49+02:00</time>
      </trkpt>
      <trkpt lat="43.82187" lon="6.95199">
        <ele>1513.73291</ele>
        <time>2012-08-15T13:59:57+02:00</time>
      </trkpt>
      <trkpt lat="43.82178" lon="6.95231">
        <ele>1515.65576</ele>
        <time>2012-08-15T14:00:06+02:00</time>
      </trkpt>
      <trkpt lat="43.82174" lon="6.95258">
        <ele>1517.0979</ele>
        <time>2012-08-15T14:00:13+02:00</time>
      </trkpt>
      <trkpt lat="43.82173" lon="6.95286">
        <ele>1518.05908</ele>
        <time>2012-08-15T14:00:20+02:00</time>
      </trkpt>
      <trkpt lat="43.8217" lon="6.95316">
        <ele>1518.05908</ele>
        <time>2012-08-15T14:00:27+02:00</time>
      </trkpt>
      <trkpt lat="43.82176" lon="6.95338">
        <ele>1517.0979</ele>
        <time>2012-08-15T14:00:32+02:00</time>
      </trkpt>
      <trkpt lat="43.82184" lon="6.95354">
        <ele>1516.13647</ele>
        <time>2012-08-15T14:00:36+02:00</time>
      </trkpt>
      <trkpt lat="43.82198" lon="6.95384">
        <ele>1513.73291</ele>
        <time>2012-08-15T14:00:41+02:00</time>
      </trkpt>
      <trkpt lat="43.82215" lon="6.95422">
        <ele>1510.36841</ele>
        <time>2012-08-15T14:00:45+02:00</time>
      </trkpt>
      <trkpt lat="43.8222" lon="6.95432">
        <ele>1509.40723</ele>
        <time>2012-08-15T14:00:46+02:00</time>
      </trkpt>
      <trkpt lat="43.82252" lon="6.95482">
        <ele>1507.00391</ele>
        <time>2012-08-15T14:00:51+02:00</time>
      </trkpt>
      <trkpt lat="43.82274" lon="6.95545">
        <ele>1505.0813</ele>
        <time>2012-08-15T14:00:57+02:00</time>
      </trkpt>
      <trkpt lat="43.82282" lon="6.95602">
        <ele>1500.75537</ele>
        <time>2012-08-15T14:01:02+02:00</time>
      </trkpt>
      <trkpt lat="43.82296" lon="6.95646">
        <ele>1496.90991</ele>
        <time>2012-08-15T14:01:06+02:00</time>
      </trkpt>
      <trkpt lat="43.82311" lon="6.95656">
        <ele>1494.9873</ele>
        <time>2012-08-15T14:01:08+02:00</time>
      </trkpt>
      <trkpt lat="43.82329" lon="6.95659">
        <ele>1493.54541</ele>
        <time>2012-08-15T14:01:10+02:00</time>
      </trkpt>
      <trkpt lat="43.82347" lon="6.9566">
        <ele>1493.0647</ele>
        <time>2012-08-15T14:01:12+02:00</time>
      </trkpt>
      <trkpt lat="43.82372" lon="6.95667">
        <ele>1491.6228</ele>
        <time>2012-08-15T14:01:15+02:00</time>
      </trkpt>
      <trkpt lat="43.82421" lon="6.95671">
        <ele>1487.77759</ele>
        <time>2012-08-15T14:01:20+02:00</time>
      </trkpt>
      <trkpt lat="43.82462" lon="6.95664">
        <ele>1485.37427</ele>
        <time>2012-08-15T14:01:24+02:00</time>
      </trkpt>
      <trkpt lat="43.82473" lon="6.95661">
        <ele>1484.8938</ele>
        <time>2012-08-15T14:01:25+02:00</time>
      </trkpt>
      <trkpt lat="43.82502" lon="6.95659">
        <ele>1483.45142</ele>
        <time>2012-08-15T14:01:28+02:00</time>
      </trkpt>
      <trkpt lat="43.82535" lon="6.95637">
        <ele>1481.04834</ele>
        <time>2012-08-15T14:01:32+02:00</time>
      </trkpt>
      <trkpt lat="43.82548" lon="6.95619">
        <ele>1480.56763</ele>
        <time>2012-08-15T14:01:34+02:00</time>
      </trkpt>
      <trkpt lat="43.82577" lon="6.95604">
        <ele>1477.20312</ele>
        <time>2012-08-15T14:01:38+02:00</time>
      </trkpt>
      <trkpt lat="43.82642" lon="6.95606">
        <ele>1471.43506</ele>
        <time>2012-08-15T14:01:45+02:00</time>
      </trkpt>
      <trkpt lat="43.82652" lon="6.95606">
        <ele>1471.43506</ele>
        <time>2012-08-15T14:01:46+02:00</time>
      </trkpt>
      <trkpt lat="43.82687" lon="6.9562">
        <ele>1468.55127</ele>
        <time>2012-08-15T14:01:50+02:00</time>
      </trkpt>
      <trkpt lat="43.82713" lon="6.95639">
        <ele>1467.10913</ele>
        <time>2012-08-15T14:01:53+02:00</time>
      </trkpt>
      <trkpt lat="43.82738" lon="6.95641">
        <ele>1465.18652</ele>
        <time>2012-08-15T14:01:57+02:00</time>
      </trkpt>
      <trkpt lat="43.82751" lon="6.95619">
        <ele>1464.70581</ele>
        <time>2012-08-15T14:02:00+02:00</time>
      </trkpt>
      <trkpt lat="43.82756" lon="6.9559">
        <ele>1464.2251</ele>
        <time>2012-08-15T14:02:04+02:00</time>
      </trkpt>
      <trkpt lat="43.82749" lon="6.95572">
        <ele>1462.7832</ele>
        <time>2012-08-15T14:02:07+02:00</time>
      </trkpt>
      <trkpt lat="43.82734" lon="6.95557">
        <ele>1461.82202</ele>
        <time>2012-08-15T14:02:10+02:00</time>
      </trkpt>
      <trkpt lat="43.8273" lon="6.95534">
        <ele>1460.37988</ele>
        <time>2012-08-15T14:02:13+02:00</time>
      </trkpt>
      <trkpt lat="43.82738" lon="6.9552">
        <ele>1460.37988</ele>
        <time>2012-08-15T14:02:15+02:00</time>
      </trkpt>
      <trkpt lat="43.82761" lon="6.955">
        <ele>1458.45728</ele>
        <time>2012-08-15T14:02:19+02:00</time>
      </trkpt>
      <trkpt lat="43.82789" lon="6.9549">
        <ele>1455.57349</ele>
        <time>2012-08-15T14:02:23+02:00</time>
      </trkpt>
      <trkpt lat="43.82802" lon="6.95473">
        <ele>1453.17017</ele>
        <time>2012-08-15T14:02:26+02:00</time>
      </trkpt>
      <trkpt lat="43.82799" lon="6.95457">
        <ele>1451.24731</ele>
        <time>2012-08-15T14:02:28+02:00</time>
      </trkpt>
      <trkpt lat="43.8279" lon="6.95446">
        <ele>1451.24731</ele>
        <time>2012-08-15T14:02:30+02:00</time>
      </trkpt>
      <trkpt lat="43.82761" lon="6.95421">
        <ele>1451.24731</ele>
        <time>2012-08-15T14:02:36+02:00</time>
      </trkpt>
      <trkpt lat="43.82739" lon="6.95406">
        <ele>1451.24731</ele>
        <time>2012-08-15T14:02:42+02:00</time>
      </trkpt>
      <trkpt lat="43.82706" lon="6.9539">
        <ele>1449.80542</ele>
        <time>2012-08-15T14:02:48+02:00</time>
      </trkpt>
      <trkpt lat="43.82676" lon="6.95376">
        <ele>1449.80542</ele>
        <time>2012-08-15T14:02:54+02:00</time>
      </trkpt>
      <trkpt lat="43.82652" lon="6.95368">
        <ele>1449.80542</ele>
        <time>2012-08-15T14:02:59+02:00</time>
      </trkpt>
      <trkpt lat="43.82619" lon="6.95374">
        <ele>1449.32471</ele>
        <time>2012-08-15T14:03:05+02:00</time>
      </trkpt>
      <trkpt lat="43.82608" lon="6.95378">
        <ele>1449.80542</ele>
        <time>2012-08-15T14:03:07+02:00</time>
      </trkpt>
      <trkpt lat="43.82599" lon="6.95379">
        <ele>1449.80542</ele>
        <time>2012-08-15T14:03:09+02:00</time>
      </trkpt>
      <trkpt lat="43.82573" lon="6.95373">
        <ele>1451.24731</ele>
        <time>2012-08-15T14:03:15+02:00</time>
      </trkpt>
      <trkpt lat="43.82565" lon="6.95368">
        <ele>1451.24731</ele>
        <time>2012-08-15T14:03:17+02:00</time>
      </trkpt>
      <trkpt lat="43.82541" lon="6.95343">
        <ele>1451.24731</ele>
        <time>2012-08-15T14:03:25+02:00</time>
      </trkpt>
      <trkpt lat="43.82523" lon="6.9532">
        <ele>1450.28613</ele>
        <time>2012-08-15T14:03:31+02:00</time>
      </trkpt>
      <trkpt lat="43.82514" lon="6.95302">
        <ele>1448.36328</ele>
        <time>2012-08-15T14:03:34+02:00</time>
      </trkpt>
      <trkpt lat="43.82499" lon="6.9525">
        <ele>1444.51807</ele>
        <time>2012-08-15T14:03:40+02:00</time>
      </trkpt>
      <trkpt lat="43.82485" lon="6.952">
        <ele>1441.15356</ele>
        <time>2012-08-15T14:03:45+02:00</time>
      </trkpt>
      <trkpt lat="43.82489" lon="6.95175">
        <ele>1438.26978</ele>
        <time>2012-08-15T14:03:49+02:00</time>
      </trkpt>
      <trkpt lat="43.82504" lon="6.95173">
        <ele>1435.86621</ele>
        <time>2012-08-15T14:03:51+02:00</time>
      </trkpt>
      <trkpt lat="43.82511" lon="6.95175">
        <ele>1434.90503</ele>
        <time>2012-08-15T14:03:52+02:00</time>
      </trkpt>
      <trkpt lat="43.82565" lon="6.95197">
        <ele>1430.09839</ele>
        <time>2012-08-15T14:03:58+02:00</time>
      </trkpt>
      <trkpt lat="43.82613" lon="6.95203">
        <ele>1428.17578</ele>
        <time>2012-08-15T14:04:03+02:00</time>
      </trkpt>
      <trkpt lat="43.82675" lon="6.95199">
        <ele>1428.65649</ele>
        <time>2012-08-15T14:04:10+02:00</time>
      </trkpt>
      <trkpt lat="43.82724" lon="6.95199">
        <ele>1427.2146</ele>
        <time>2012-08-15T14:04:16+02:00</time>
      </trkpt>
      <trkpt lat="43.82784" lon="6.95221">
        <ele>1423.84985</ele>
        <time>2012-08-15T14:04:23+02:00</time>
      </trkpt>
      <trkpt lat="43.82853" lon="6.95242">
        <ele>1421.44653</ele>
        <time>2012-08-15T14:04:31+02:00</time>
      </trkpt>
      <trkpt lat="43.82905" lon="6.95267">
        <ele>1420.00464</ele>
        <time>2012-08-15T14:04:37+02:00</time>
      </trkpt>
      <trkpt lat="43.82949" lon="6.95289">
        <ele>1417.60107</ele>
        <time>2012-08-15T14:04:42+02:00</time>
      </trkpt>
      <trkpt lat="43.83013" lon="6.95318">
        <ele>1414.71729</ele>
        <time>2012-08-15T14:04:49+02:00</time>
      </trkpt>
      <trkpt lat="43.83053" lon="6.95334">
        <ele>1414.23657</ele>
        <time>2012-08-15T14:04:54+02:00</time>
      </trkpt>
      <trkpt lat="43.83076" lon="6.95343">
        <ele>1413.75586</ele>
        <time>2012-08-15T14:04:57+02:00</time>
      </trkpt>
      <trkpt lat="43.831" lon="6.95363">
        <ele>1412.79468</ele>
        <time>2012-08-15T14:05:01+02:00</time>
      </trkpt>
      <trkpt lat="43.83114" lon="6.95383">
        <ele>1412.79468</ele>
        <time>2012-08-15T14:05:04+02:00</time>
      </trkpt>
      <trkpt lat="43.83132" lon="6.95405">
        <ele>1412.79468</ele>
        <time>2012-08-15T14:05:08+02:00</time>
      </trkpt>
      <trkpt lat="43.83138" lon="6.95417">
        <ele>1413.27539</ele>
        <time>2012-08-15T14:05:10+02:00</time>
      </trkpt>
      <trkpt lat="43.83143" lon="6.95444">
        <ele>1413.75586</ele>
        <time>2012-08-15T14:05:15+02:00</time>
      </trkpt>
      <trkpt lat="43.83138" lon="6.95446">
        <ele>1413.75586</ele>
        <time>2012-08-15T14:05:17+02:00</time>
      </trkpt>
      <trkpt lat="43.83121" lon="6.95437">
        <ele>1414.71729</ele>
        <time>2012-08-15T14:05:23+02:00</time>
      </trkpt>
      <trkpt lat="43.83106" lon="6.95425">
        <ele>1414.23657</ele>
        <time>2012-08-15T14:05:28+02:00</time>
      </trkpt>
      <trkpt lat="43.831" lon="6.9543">
        <ele>1414.23657</ele>
        <time>2012-08-15T14:05:32+02:00</time>
      </trkpt>
      <trkpt lat="43.831" lon="6.95435">
        <ele>1414.23657</ele>
        <time>2012-08-15T14:05:33+02:00</time>
      </trkpt>
      <trkpt lat="43.8309" lon="6.9546">
        <ele>1412.31396</ele>
        <time>2012-08-15T14:05:38+02:00</time>
      </trkpt>
      <trkpt lat="43.83075" lon="6.9547">
        <ele>1411.8335</ele>
        <time>2012-08-15T14:05:41+02:00</time>
      </trkpt>
      <trkpt lat="43.8306" lon="6.9549">
        <ele>1410.39136</ele>
        <time>2012-08-15T14:05:45+02:00</time>
      </trkpt>
      <trkpt lat="43.83057" lon="6.9551">
        <ele>1410.39136</ele>
        <time>2012-08-15T14:05:48+02:00</time>
      </trkpt>
      <trkpt lat="43.83053" lon="6.95519">
        <ele>1411.35278</ele>
        <time>2012-08-15T14:05:50+02:00</time>
      </trkpt>
      <trkpt lat="43.83039" lon="6.95536">
        <ele>1412.31396</ele>
        <time>2012-08-15T14:05:55+02:00</time>
      </trkpt>
      <trkpt lat="43.83024" lon="6.95557">
        <ele>1412.31396</ele>
        <time>2012-08-15T14:06:01+02:00</time>
      </trkpt>
      <trkpt lat="43.83014" lon="6.95578">
        <ele>1412.31396</ele>
        <time>2012-08-15T14:06:04+02:00</time>
      </trkpt>
      <trkpt lat="43.83008" lon="6.95589">
        <ele>1411.8335</ele>
        <time>2012-08-15T14:06:07+02:00</time>
      </trkpt>
      <trkpt lat="43.83013" lon="6.95601">
        <ele>1411.8335</ele>
        <time>2012-08-15T14:06:11+02:00</time>
      </trkpt>
      <trkpt lat="43.83014" lon="6.95606">
        <ele>1411.8335</ele>
        <time>2012-08-15T14:06:12+02:00</time>
      </trkpt>
      <trkpt lat="43.83017" lon="6.95649">
        <ele>1411.35278</ele>
        <time>2012-08-15T14:06:19+02:00</time>
      </trkpt>
      <trkpt lat="43.83014" lon="6.95675">
        <ele>1410.87207</ele>
        <time>2012-08-15T14:06:23+02:00</time>
      </trkpt>
      <trkpt lat="43.8301" lon="6.95697">
        <ele>1410.39136</ele>
        <time>2012-08-15T14:06:26+02:00</time>
      </trkpt>
      <trkpt lat="43.83002" lon="6.95725">
        <ele>1410.39136</ele>
        <time>2012-08-15T14:06:30+02:00</time>
      </trkpt>
      <trkpt lat="43.83" lon="6.95737">
        <ele>1409.91064</ele>
        <time>2012-08-15T14:06:32+02:00</time>
      </trkpt>
      <trkpt lat="43.82997" lon="6.95749">
        <ele>1409.43018</ele>
        <time>2012-08-15T14:06:34+02:00</time>
      </trkpt>
      <trkpt lat="43.82981" lon="6.95781">
        <ele>1408.46875</ele>
        <time>2012-08-15T14:06:39+02:00</time>
      </trkpt>
      <trkpt lat="43.82977" lon="6.95804">
        <ele>1407.50757</ele>
        <time>2012-08-15T14:06:42+02:00</time>
      </trkpt>
      <trkpt lat="43.82978" lon="6.9582">
        <ele>1406.54614</ele>
        <time>2012-08-15T14:06:44+02:00</time>
      </trkpt>
      <trkpt lat="43.8298" lon="6.95851">
        <ele>1406.06543</ele>
        <time>2012-08-15T14:06:48+02:00</time>
      </trkpt>
      <trkpt lat="43.82991" lon="6.95852">
        <ele>1405.58496</ele>
        <time>2012-08-15T14:06:51+02:00</time>
      </trkpt>
      <trkpt lat="43.83" lon="6.95836">
        <ele>1404.62354</ele>
        <time>2012-08-15T14:06:54+02:00</time>
      </trkpt>
      <trkpt lat="43.83007" lon="6.95831">
        <ele>1403.1814</ele>
        <time>2012-08-15T14:06:57+02:00</time>
      </trkpt>
      <trkpt lat="43.83006" lon="6.95846">
        <ele>1402.70068</ele>
        <time>2012-08-15T14:07:00+02:00</time>
      </trkpt>
      <trkpt lat="43.83003" lon="6.95862">
        <ele>1401.7395</ele>
        <time>2012-08-15T14:07:03+02:00</time>
      </trkpt>
      <trkpt lat="43.83001" lon="6.95875">
        <ele>1401.25879</ele>
        <time>2012-08-15T14:07:05+02:00</time>
      </trkpt>
      <trkpt lat="43.83009" lon="6.95879">
        <ele>1400.29761</ele>
        <time>2012-08-15T14:07:08+02:00</time>
      </trkpt>
      <trkpt lat="43.83014" lon="6.95882">
        <ele>1399.81689</ele>
        <time>2012-08-15T14:07:10+02:00</time>
      </trkpt>
      <trkpt lat="43.83022" lon="6.95902">
        <ele>1398.37476</ele>
        <time>2012-08-15T14:07:14+02:00</time>
      </trkpt>
      <trkpt lat="43.83037" lon="6.95905">
        <ele>1398.85547</ele>
        <time>2012-08-15T14:07:17+02:00</time>
      </trkpt>
      <trkpt lat="43.83041" lon="6.95908">
        <ele>1398.85547</ele>
        <time>2012-08-15T14:07:18+02:00</time>
      </trkpt>
      <trkpt lat="43.83055" lon="6.95922">
        <ele>1397.89429</ele>
        <time>2012-08-15T14:07:21+02:00</time>
      </trkpt>
      <trkpt lat="43.83066" lon="6.9593">
        <ele>1397.89429</ele>
        <time>2012-08-15T14:07:23+02:00</time>
      </trkpt>
      <trkpt lat="43.83074" lon="6.95947">
        <ele>1396.45239</ele>
        <time>2012-08-15T14:07:27+02:00</time>
      </trkpt>
      <trkpt lat="43.83078" lon="6.95962">
        <ele>1395.01025</ele>
        <time>2012-08-15T14:07:31+02:00</time>
      </trkpt>
      <trkpt lat="43.8308" lon="6.95976">
        <ele>1394.04907</ele>
        <time>2012-08-15T14:07:34+02:00</time>
      </trkpt>
      <trkpt lat="43.83087" lon="6.95987">
        <ele>1393.08765</ele>
        <time>2012-08-15T14:07:37+02:00</time>
      </trkpt>
      <trkpt lat="43.83089" lon="6.96">
        <ele>1392.12646</ele>
        <time>2012-08-15T14:07:40+02:00</time>
      </trkpt>
      <trkpt lat="43.83083" lon="6.96">
        <ele>1391.64575</ele>
        <time>2012-08-15T14:07:42+02:00</time>
      </trkpt>
      <trkpt lat="43.83079" lon="6.9601">
        <ele>1390.68433</ele>
        <time>2012-08-15T14:07:45+02:00</time>
      </trkpt>
      <trkpt lat="43.83089" lon="6.96021">
        <ele>1390.20386</ele>
        <time>2012-08-15T14:07:48+02:00</time>
      </trkpt>
      <trkpt lat="43.83088" lon="6.96027">
        <ele>1390.20386</ele>
        <time>2012-08-15T14:07:51+02:00</time>
      </trkpt>
      <trkpt lat="43.83087" lon="6.96031">
        <ele>1389.72314</ele>
        <time>2012-08-15T14:07:54+02:00</time>
      </trkpt>
      <trkpt lat="43.83096" lon="6.96035">
        <ele>1390.20386</ele>
        <time>2012-08-15T14:07:58+02:00</time>
      </trkpt>
      <trkpt lat="43.83098" lon="6.96045">
        <ele>1390.20386</ele>
        <time>2012-08-15T14:08:00+02:00</time>
      </trkpt>
      <trkpt lat="43.831" lon="6.96083">
        <ele>1388.76196</ele>
        <time>2012-08-15T14:08:05+02:00</time>
      </trkpt>
      <trkpt lat="43.83105" lon="6.96135">
        <ele>1387.80029</ele>
        <time>2012-08-15T14:08:11+02:00</time>
      </trkpt>
      <trkpt lat="43.83106" lon="6.96175">
        <ele>1387.80029</ele>
        <time>2012-08-15T14:08:16+02:00</time>
      </trkpt>
      <trkpt lat="43.83106" lon="6.96218">
        <ele>1387.80029</ele>
        <time>2012-08-15T14:08:22+02:00</time>
      </trkpt>
      <trkpt lat="43.83101" lon="6.96276">
        <ele>1387.31958</ele>
        <time>2012-08-15T14:08:30+02:00</time>
      </trkpt>
      <trkpt lat="43.8309" lon="6.96329">
        <ele>1387.80029</ele>
        <time>2012-08-15T14:08:38+02:00</time>
      </trkpt>
      <trkpt lat="43.83084" lon="6.96352">
        <ele>1388.28125</ele>
        <time>2012-08-15T14:08:42+02:00</time>
      </trkpt>
      <trkpt lat="43.83077" lon="6.9638">
        <ele>1389.24243</ele>
        <time>2012-08-15T14:08:47+02:00</time>
      </trkpt>
      <trkpt lat="43.8306" lon="6.96428">
        <ele>1391.16504</ele>
        <time>2012-08-15T14:08:56+02:00</time>
      </trkpt>
      <trkpt lat="43.83045" lon="6.96471">
        <ele>1393.08765</ele>
        <time>2012-08-15T14:09:05+02:00</time>
      </trkpt>
      <trkpt lat="43.83033" lon="6.96502">
        <ele>1395.01025</ele>
        <time>2012-08-15T14:09:12+02:00</time>
      </trkpt>
      <trkpt lat="43.83021" lon="6.96534">
        <ele>1396.45239</ele>
        <time>2012-08-15T14:09:19+02:00</time>
      </trkpt>
      <trkpt lat="43.83006" lon="6.96569">
        <ele>1397.89429</ele>
        <time>2012-08-15T14:09:27+02:00</time>
      </trkpt>
      <trkpt lat="43.82987" lon="6.96612">
        <ele>1400.29761</ele>
        <time>2012-08-15T14:09:37+02:00</time>
      </trkpt>
      <trkpt lat="43.82975" lon="6.96639">
        <ele>1401.7395</ele>
        <time>2012-08-15T14:09:44+02:00</time>
      </trkpt>
      <trkpt lat="43.82967" lon="6.96657">
        <ele>1403.1814</ele>
        <time>2012-08-15T14:09:49+02:00</time>
      </trkpt>
      <trkpt lat="43.8296" lon="6.96663">
        <ele>1404.62354</ele>
        <time>2012-08-15T14:09:53+02:00</time>
      </trkpt>
      <trkpt lat="43.82949" lon="6.96658">
        <ele>1404.62354</ele>
        <time>2012-08-15T14:09:58+02:00</time>
      </trkpt>
      <trkpt lat="43.82946" lon="6.96656">
        <ele>1404.62354</ele>
        <time>2012-08-15T14:09:59+02:00</time>
      </trkpt>
      <trkpt lat="43.82919" lon="6.96641">
        <ele>1405.10425</ele>
        <time>2012-08-15T14:10:09+02:00</time>
      </trkpt>
      <trkpt lat="43.82899" lon="6.96643">
        <ele>1406.06543</ele>
        <time>2012-08-15T14:10:17+02:00</time>
      </trkpt>
      <trkpt lat="43.8288" lon="6.96644">
        <ele>1407.02686</ele>
        <time>2012-08-15T14:10:24+02:00</time>
      </trkpt>
      <trkpt lat="43.82852" lon="6.96644">
        <ele>1408.46875</ele>
        <time>2012-08-15T14:10:34+02:00</time>
      </trkpt>
      <trkpt lat="43.82833" lon="6.96645">
        <ele>1408.94946</ele>
        <time>2012-08-15T14:10:41+02:00</time>
      </trkpt>
      <trkpt lat="43.82813" lon="6.96634">
        <ele>1409.91064</ele>
        <time>2012-08-15T14:10:48+02:00</time>
      </trkpt>
      <trkpt lat="43.82793" lon="6.96618">
        <ele>1411.35278</ele>
        <time>2012-08-15T14:10:56+02:00</time>
      </trkpt>
      <trkpt lat="43.82773" lon="6.96605">
        <ele>1413.27539</ele>
        <time>2012-08-15T14:11:04+02:00</time>
      </trkpt>
      <trkpt lat="43.82762" lon="6.96596">
        <ele>1414.23657</ele>
        <time>2012-08-15T14:11:09+02:00</time>
      </trkpt>
      <trkpt lat="43.82744" lon="6.96583">
        <ele>1415.198</ele>
        <time>2012-08-15T14:11:17+02:00</time>
      </trkpt>
      <trkpt lat="43.82726" lon="6.96574">
        <ele>1417.60107</ele>
        <time>2012-08-15T14:11:25+02:00</time>
      </trkpt>
      <trkpt lat="43.82711" lon="6.96573">
        <ele>1419.52393</ele>
        <time>2012-08-15T14:11:31+02:00</time>
      </trkpt>
      <trkpt lat="43.827" lon="6.96572">
        <ele>1423.36938</ele>
        <time>2012-08-15T14:11:36+02:00</time>
      </trkpt>
      <trkpt lat="43.82691" lon="6.96561">
        <ele>1423.84985</ele>
        <time>2012-08-15T14:11:41+02:00</time>
      </trkpt>
      <trkpt lat="43.82681" lon="6.96551">
        <ele>1425.77246</ele>
        <time>2012-08-15T14:11:46+02:00</time>
      </trkpt>
      <trkpt lat="43.82671" lon="6.96541">
        <ele>1426.73389</ele>
        <time>2012-08-15T14:11:52+02:00</time>
      </trkpt>
      <trkpt lat="43.82663" lon="6.9653">
        <ele>1427.2146</ele>
        <time>2012-08-15T14:11:57+02:00</time>
      </trkpt>
      <trkpt lat="43.82655" lon="6.9652">
        <ele>1428.17578</ele>
        <time>2012-08-15T14:12:03+02:00</time>
      </trkpt>
      <trkpt lat="43.82645" lon="6.9651">
        <ele>1431.54028</ele>
        <time>2012-08-15T14:12:10+02:00</time>
      </trkpt>
      <trkpt lat="43.82635" lon="6.965">
        <ele>1432.98218</ele>
        <time>2012-08-15T14:12:16+02:00</time>
      </trkpt>
      <trkpt lat="43.82625" lon="6.96489">
        <ele>1432.98218</ele>
        <time>2012-08-15T14:12:22+02:00</time>
      </trkpt>
      <trkpt lat="43.82616" lon="6.96472">
        <ele>1432.021</ele>
        <time>2012-08-15T14:12:27+02:00</time>
      </trkpt>
      <trkpt lat="43.82602" lon="6.96442">
        <ele>1431.54028</ele>
        <time>2012-08-15T14:12:34+02:00</time>
      </trkpt>
      <trkpt lat="43.82588" lon="6.96402">
        <ele>1431.54028</ele>
        <time>2012-08-15T14:12:42+02:00</time>
      </trkpt>
      <trkpt lat="43.82585" lon="6.96375">
        <ele>1431.54028</ele>
        <time>2012-08-15T14:12:47+02:00</time>
      </trkpt>
      <trkpt lat="43.82586" lon="6.96363">
        <ele>1432.021</ele>
        <time>2012-08-15T14:12:49+02:00</time>
      </trkpt>
      <trkpt lat="43.82593" lon="6.96342">
        <ele>1433.9436</ele>
        <time>2012-08-15T14:12:53+02:00</time>
      </trkpt>
      <trkpt lat="43.82611" lon="6.96302">
        <ele>1436.34717</ele>
        <time>2012-08-15T14:13:02+02:00</time>
      </trkpt>
      <trkpt lat="43.82616" lon="6.96274">
        <ele>1437.78906</ele>
        <time>2012-08-15T14:13:09+02:00</time>
      </trkpt>
      <trkpt lat="43.82617" lon="6.96252">
        <ele>1438.75049</ele>
        <time>2012-08-15T14:13:15+02:00</time>
      </trkpt>
      <trkpt lat="43.82621" lon="6.9623">
        <ele>1439.23096</ele>
        <time>2012-08-15T14:13:22+02:00</time>
      </trkpt>
      <trkpt lat="43.82624" lon="6.9621">
        <ele>1440.19238</ele>
        <time>2012-08-15T14:13:28+02:00</time>
      </trkpt>
      <trkpt lat="43.82627" lon="6.96203">
        <ele>1440.67285</ele>
        <time>2012-08-15T14:13:30+02:00</time>
      </trkpt>
      <trkpt lat="43.82635" lon="6.96201">
        <ele>1441.15356</ele>
        <time>2012-08-15T14:13:34+02:00</time>
      </trkpt>
      <trkpt lat="43.82647" lon="6.96211">
        <ele>1441.63428</ele>
        <time>2012-08-15T14:13:39+02:00</time>
      </trkpt>
      <trkpt lat="43.82664" lon="6.96227">
        <ele>1441.63428</ele>
        <time>2012-08-15T14:13:46+02:00</time>
      </trkpt>
      <trkpt lat="43.82673" lon="6.96235">
        <ele>1443.55688</ele>
        <time>2012-08-15T14:13:49+02:00</time>
      </trkpt>
      <trkpt lat="43.82674" lon="6.96229">
        <ele>1442.11499</ele>
        <time>2012-08-15T14:13:53+02:00</time>
      </trkpt>
      <trkpt lat="43.82669" lon="6.96225">
        <ele>1441.63428</ele>
        <time>2012-08-15T14:13:55+02:00</time>
      </trkpt>
      <trkpt lat="43.82662" lon="6.9621">
        <ele>1441.15356</ele>
        <time>2012-08-15T14:14:00+02:00</time>
      </trkpt>
      <trkpt lat="43.82662" lon="6.96207">
        <ele>1441.15356</ele>
        <time>2012-08-15T14:14:01+02:00</time>
      </trkpt>
      <trkpt lat="43.8267" lon="6.96204">
        <ele>1442.11499</ele>
        <time>2012-08-15T14:14:05+02:00</time>
      </trkpt>
      <trkpt lat="43.82675" lon="6.96207">
        <ele>1442.11499</ele>
        <time>2012-08-15T14:14:07+02:00</time>
      </trkpt>
      <trkpt lat="43.82689" lon="6.9621">
        <ele>1443.07617</ele>
        <time>2012-08-15T14:14:12+02:00</time>
      </trkpt>
      <trkpt lat="43.82688" lon="6.96203">
        <ele>1443.55688</ele>
        <time>2012-08-15T14:14:16+02:00</time>
      </trkpt>
      <trkpt lat="43.8269" lon="6.96198">
        <ele>1443.55688</ele>
        <time>2012-08-15T14:14:19+02:00</time>
      </trkpt>
      <trkpt lat="43.82702" lon="6.96203">
        <ele>1443.07617</ele>
        <time>2012-08-15T14:14:23+02:00</time>
      </trkpt>
      <trkpt lat="43.8271" lon="6.96195">
        <ele>1443.55688</ele>
        <time>2012-08-15T14:14:27+02:00</time>
      </trkpt>
      <trkpt lat="43.82705" lon="6.96189">
        <ele>1444.0376</ele>
        <time>2012-08-15T14:14:30+02:00</time>
      </trkpt>
      <trkpt lat="43.82702" lon="6.96183">
        <ele>1444.51807</ele>
        <time>2012-08-15T14:14:32+02:00</time>
      </trkpt>
      <trkpt lat="43.82709" lon="6.96177">
        <ele>1445.96021</ele>
        <time>2012-08-15T14:14:35+02:00</time>
      </trkpt>
      <trkpt lat="43.82725" lon="6.9618">
        <ele>1447.88281</ele>
        <time>2012-08-15T14:14:40+02:00</time>
      </trkpt>
      <trkpt lat="43.82735" lon="6.9618">
        <ele>1448.84399</ele>
        <time>2012-08-15T14:14:44+02:00</time>
      </trkpt>
      <trkpt lat="43.82746" lon="6.96176">
        <ele>1450.28613</ele>
        <time>2012-08-15T14:14:48+02:00</time>
      </trkpt>
      <trkpt lat="43.82753" lon="6.96172">
        <ele>1450.28613</ele>
        <time>2012-08-15T14:14:53+02:00</time>
      </trkpt>
      <trkpt lat="43.82747" lon="6.96166">
        <ele>1451.24731</ele>
        <time>2012-08-15T14:14:56+02:00</time>
      </trkpt>
      <trkpt lat="43.8275" lon="6.9616">
        <ele>1452.20874</ele>
        <time>2012-08-15T14:14:59+02:00</time>
      </trkpt>
      <trkpt lat="43.82752" lon="6.9616">
        <ele>1452.68945</ele>
        <time>2012-08-15T14:15:00+02:00</time>
      </trkpt>
      <trkpt lat="43.82767" lon="6.96175">
        <ele>1452.20874</ele>
        <time>2012-08-15T14:15:06+02:00</time>
      </trkpt>
      <trkpt lat="43.82778" lon="6.96182">
        <ele>1453.65088</ele>
        <time>2012-08-15T14:15:10+02:00</time>
      </trkpt>
      <trkpt lat="43.82788" lon="6.96193">
        <ele>1454.61206</ele>
        <time>2012-08-15T14:15:15+02:00</time>
      </trkpt>
      <trkpt lat="43.82789" lon="6.96196">
        <ele>1454.61206</ele>
        <time>2012-08-15T14:15:16+02:00</time>
      </trkpt>
      <trkpt lat="43.82785" lon="6.96208">
        <ele>1454.13159</ele>
        <time>2012-08-15T14:15:20+02:00</time>
      </trkpt>
      <trkpt lat="43.82778" lon="6.96216">
        <ele>1454.61206</ele>
        <time>2012-08-15T14:15:24+02:00</time>
      </trkpt>
      <trkpt lat="43.8278" lon="6.9622">
        <ele>1455.57349</ele>
        <time>2012-08-15T14:15:28+02:00</time>
      </trkpt>
      <trkpt lat="43.82786" lon="6.96225">
        <ele>1456.05396</ele>
        <time>2012-08-15T14:15:32+02:00</time>
      </trkpt>
      <trkpt lat="43.82781" lon="6.9623">
        <ele>1456.05396</ele>
        <time>2012-08-15T14:15:35+02:00</time>
      </trkpt>
      <trkpt lat="43.82772" lon="6.96239">
        <ele>1457.49609</ele>
        <time>2012-08-15T14:15:40+02:00</time>
      </trkpt>
      <trkpt lat="43.82762" lon="6.96251">
        <ele>1459.4187</ele>
        <time>2012-08-15T14:15:45+02:00</time>
      </trkpt>
      <trkpt lat="43.82756" lon="6.96268">
        <ele>1460.8606</ele>
        <time>2012-08-15T14:15:51+02:00</time>
      </trkpt>
      <trkpt lat="43.82755" lon="6.96281">
        <ele>1461.34131</ele>
        <time>2012-08-15T14:15:55+02:00</time>
      </trkpt>
      <trkpt lat="43.82754" lon="6.96287">
        <ele>1461.82202</ele>
        <time>2012-08-15T14:15:57+02:00</time>
      </trkpt>
      <trkpt lat="43.82752" lon="6.96299">
        <ele>1462.30249</ele>
        <time>2012-08-15T14:16:01+02:00</time>
      </trkpt>
      <trkpt lat="43.82755" lon="6.963">
        <ele>1462.30249</ele>
        <time>2012-08-15T14:16:04+02:00</time>
      </trkpt>
      <trkpt lat="43.82757" lon="6.96297">
        <ele>1462.30249</ele>
        <time>2012-08-15T14:16:05+02:00</time>
      </trkpt>
      <trkpt lat="43.82772" lon="6.96274">
        <ele>1462.7832</ele>
        <time>2012-08-15T14:16:13+02:00</time>
      </trkpt>
      <trkpt lat="43.82776" lon="6.96269">
        <ele>1463.26392</ele>
        <time>2012-08-15T14:16:15+02:00</time>
      </trkpt>
      <trkpt lat="43.82779" lon="6.96274">
        <ele>1462.7832</ele>
        <time>2012-08-15T14:16:20+02:00</time>
      </trkpt>
      <trkpt lat="43.82777" lon="6.96277">
        <ele>1462.7832</ele>
        <time>2012-08-15T14:16:21+02:00</time>
      </trkpt>
      <trkpt lat="43.82767" lon="6.96292">
        <ele>1461.82202</ele>
        <time>2012-08-15T14:16:26+02:00</time>
      </trkpt>
      <trkpt lat="43.82766" lon="6.96307">
        <ele>1463.26392</ele>
        <time>2012-08-15T14:16:31+02:00</time>
      </trkpt>
      <trkpt lat="43.82771" lon="6.96307">
        <ele>1464.70581</ele>
        <time>2012-08-15T14:16:35+02:00</time>
      </trkpt>
      <trkpt lat="43.82773" lon="6.96305">
        <ele>1464.70581</ele>
        <time>2012-08-15T14:16:36+02:00</time>
      </trkpt>
      <trkpt lat="43.82785" lon="6.96296">
        <ele>1464.70581</ele>
        <time>2012-08-15T14:16:41+02:00</time>
      </trkpt>
      <trkpt lat="43.82794" lon="6.96302">
        <ele>1464.2251</ele>
        <time>2012-08-15T14:16:45+02:00</time>
      </trkpt>
      <trkpt lat="43.82793" lon="6.96314">
        <ele>1465.18652</ele>
        <time>2012-08-15T14:16:49+02:00</time>
      </trkpt>
      <trkpt lat="43.82778" lon="6.9633">
        <ele>1467.5896</ele>
        <time>2012-08-15T14:16:57+02:00</time>
      </trkpt>
      <trkpt lat="43.82782" lon="6.96332">
        <ele>1468.55127</ele>
        <time>2012-08-15T14:17:01+02:00</time>
      </trkpt>
      <trkpt lat="43.82791" lon="6.96332">
        <ele>1469.03198</ele>
        <time>2012-08-15T14:17:04+02:00</time>
      </trkpt>
      <trkpt lat="43.82787" lon="6.96338">
        <ele>1469.99316</ele>
        <time>2012-08-15T14:17:07+02:00</time>
      </trkpt>
      <trkpt lat="43.82769" lon="6.96348">
        <ele>1472.39648</ele>
        <time>2012-08-15T14:17:15+02:00</time>
      </trkpt>
      <trkpt lat="43.82762" lon="6.96355">
        <ele>1473.35791</ele>
        <time>2012-08-15T14:17:19+02:00</time>
      </trkpt>
      <trkpt lat="43.82765" lon="6.96358">
        <ele>1473.83838</ele>
        <time>2012-08-15T14:17:23+02:00</time>
      </trkpt>
      <trkpt lat="43.8277" lon="6.96357">
        <ele>1474.31909</ele>
        <time>2012-08-15T14:17:25+02:00</time>
      </trkpt>
      <trkpt lat="43.82777" lon="6.96357">
        <ele>1474.7998</ele>
        <time>2012-08-15T14:17:28+02:00</time>
      </trkpt>
      <trkpt lat="43.8278" lon="6.96362">
        <ele>1475.28027</ele>
        <time>2012-08-15T14:17:32+02:00</time>
      </trkpt>
      <trkpt lat="43.82775" lon="6.9637">
        <ele>1475.76099</ele>
        <time>2012-08-15T14:17:35+02:00</time>
      </trkpt>
      <trkpt lat="43.8278" lon="6.96381">
        <ele>1477.20312</ele>
        <time>2012-08-15T14:17:40+02:00</time>
      </trkpt>
      <trkpt lat="43.82782" lon="6.96381">
        <ele>1477.20312</ele>
        <time>2012-08-15T14:17:41+02:00</time>
      </trkpt>
      <trkpt lat="43.82797" lon="6.96382">
        <ele>1477.20312</ele>
        <time>2012-08-15T14:17:47+02:00</time>
      </trkpt>
      <trkpt lat="43.82798" lon="6.96381">
        <ele>1477.68359</ele>
        <time>2012-08-15T14:17:55+02:00</time>
      </trkpt>
      <trkpt lat="43.82797" lon="6.96379">
        <ele>1477.68359</ele>
        <time>2012-08-15T14:18:01+02:00</time>
      </trkpt>
      <trkpt lat="43.8279" lon="6.96373">
        <ele>1477.20312</ele>
        <time>2012-08-15T14:18:07+02:00</time>
      </trkpt>
      <trkpt lat="43.82787" lon="6.96371">
        <ele>1477.20312</ele>
        <time>2012-08-15T14:18:08+02:00</time>
      </trkpt>
      <trkpt lat="43.8279" lon="6.9636">
        <ele>1475.28027</ele>
        <time>2012-08-15T14:18:12+02:00</time>
      </trkpt>
      <trkpt lat="43.82793" lon="6.9636">
        <ele>1474.7998</ele>
        <time>2012-08-15T14:18:16+02:00</time>
      </trkpt>
      <trkpt lat="43.82796" lon="6.9636">
        <ele>1474.31909</ele>
        <time>2012-08-15T14:18:21+02:00</time>
      </trkpt>
      <trkpt lat="43.82796" lon="6.96349">
        <ele>1472.8772</ele>
        <time>2012-08-15T14:18:25+02:00</time>
      </trkpt>
      <trkpt lat="43.82795" lon="6.96342">
        <ele>1472.39648</ele>
        <time>2012-08-15T14:18:27+02:00</time>
      </trkpt>
      <trkpt lat="43.82802" lon="6.96341">
        <ele>1470.95459</ele>
        <time>2012-08-15T14:18:29+02:00</time>
      </trkpt>
      <trkpt lat="43.82808" lon="6.96341">
        <ele>1469.5127</ele>
        <time>2012-08-15T14:18:32+02:00</time>
      </trkpt>
      <trkpt lat="43.82801" lon="6.96327">
        <ele>1469.03198</ele>
        <time>2012-08-15T14:18:35+02:00</time>
      </trkpt>
      <trkpt lat="43.82806" lon="6.9632">
        <ele>1467.5896</ele>
        <time>2012-08-15T14:18:38+02:00</time>
      </trkpt>
      <trkpt lat="43.82813" lon="6.96319">
        <ele>1466.62842</ele>
        <time>2012-08-15T14:18:41+02:00</time>
      </trkpt>
      <trkpt lat="43.82814" lon="6.96306">
        <ele>1464.70581</ele>
        <time>2012-08-15T14:18:44+02:00</time>
      </trkpt>
      <trkpt lat="43.82807" lon="6.96282">
        <ele>1460.8606</ele>
        <time>2012-08-15T14:18:47+02:00</time>
      </trkpt>
      <trkpt lat="43.82794" lon="6.96265">
        <ele>1460.37988</ele>
        <time>2012-08-15T14:18:50+02:00</time>
      </trkpt>
      <trkpt lat="43.82795" lon="6.96252">
        <ele>1457.97681</ele>
        <time>2012-08-15T14:18:54+02:00</time>
      </trkpt>
      <trkpt lat="43.82806" lon="6.96259">
        <ele>1458.45728</ele>
        <time>2012-08-15T14:18:57+02:00</time>
      </trkpt>
      <trkpt lat="43.82811" lon="6.96246">
        <ele>1458.45728</ele>
        <time>2012-08-15T14:19:01+02:00</time>
      </trkpt>
      <trkpt lat="43.82805" lon="6.96219">
        <ele>1456.05396</ele>
        <time>2012-08-15T14:19:04+02:00</time>
      </trkpt>
      <trkpt lat="43.82806" lon="6.96214">
        <ele>1452.68945</ele>
        <time>2012-08-15T14:19:09+02:00</time>
      </trkpt>
      <trkpt lat="43.82809" lon="6.96218">
        <ele>1451.72803</ele>
        <time>2012-08-15T14:19:10+02:00</time>
      </trkpt>
      <trkpt lat="43.82815" lon="6.96225">
        <ele>1452.20874</ele>
        <time>2012-08-15T14:19:12+02:00</time>
      </trkpt>
      <trkpt lat="43.82825" lon="6.96216">
        <ele>1450.7666</ele>
        <time>2012-08-15T14:19:16+02:00</time>
      </trkpt>
      <trkpt lat="43.82821" lon="6.96199">
        <ele>1449.32471</ele>
        <time>2012-08-15T14:19:19+02:00</time>
      </trkpt>
      <trkpt lat="43.8282" lon="6.96179">
        <ele>1448.36328</ele>
        <time>2012-08-15T14:19:22+02:00</time>
      </trkpt>
      <trkpt lat="43.82824" lon="6.96183">
        <ele>1447.4021</ele>
        <time>2012-08-15T14:19:24+02:00</time>
      </trkpt>
      <trkpt lat="43.82833" lon="6.9618">
        <ele>1445.96021</ele>
        <time>2012-08-15T14:19:28+02:00</time>
      </trkpt>
      <trkpt lat="43.82838" lon="6.96176">
        <ele>1444.51807</ele>
        <time>2012-08-15T14:19:31+02:00</time>
      </trkpt>
      <trkpt lat="43.82846" lon="6.96172">
        <ele>1443.55688</ele>
        <time>2012-08-15T14:19:33+02:00</time>
      </trkpt>
      <trkpt lat="43.82861" lon="6.9616">
        <ele>1443.07617</ele>
        <time>2012-08-15T14:19:36+02:00</time>
      </trkpt>
      <trkpt lat="43.82873" lon="6.96153">
        <ele>1441.63428</ele>
        <time>2012-08-15T14:19:38+02:00</time>
      </trkpt>
      <trkpt lat="43.82892" lon="6.96133">
        <ele>1439.71167</ele>
        <time>2012-08-15T14:19:42+02:00</time>
      </trkpt>
      <trkpt lat="43.82891" lon="6.96113">
        <ele>1439.23096</ele>
        <time>2012-08-15T14:19:45+02:00</time>
      </trkpt>
      <trkpt lat="43.82893" lon="6.96097">
        <ele>1440.67285</ele>
        <time>2012-08-15T14:19:48+02:00</time>
      </trkpt>
      <trkpt lat="43.82899" lon="6.96094">
        <ele>1441.63428</ele>
        <time>2012-08-15T14:19:52+02:00</time>
      </trkpt>
      <trkpt lat="43.82906" lon="6.96112">
        <ele>1440.67285</ele>
        <time>2012-08-15T14:19:55+02:00</time>
      </trkpt>
      <trkpt lat="43.82906" lon="6.96119">
        <ele>1439.71167</ele>
        <time>2012-08-15T14:19:56+02:00</time>
      </trkpt>
      <trkpt lat="43.82916" lon="6.96138">
        <ele>1436.34717</ele>
        <time>2012-08-15T14:20:00+02:00</time>
      </trkpt>
      <trkpt lat="43.82922" lon="6.96129">
        <ele>1435.3855</ele>
        <time>2012-08-15T14:20:02+02:00</time>
      </trkpt>
      <trkpt lat="43.82924" lon="6.96105">
        <ele>1433.46289</ele>
        <time>2012-08-15T14:20:05+02:00</time>
      </trkpt>
      <trkpt lat="43.82935" lon="6.961">
        <ele>1432.50171</ele>
        <time>2012-08-15T14:20:10+02:00</time>
      </trkpt>
      <trkpt lat="43.82938" lon="6.96109">
        <ele>1430.09839</ele>
        <time>2012-08-15T14:20:13+02:00</time>
      </trkpt>
      <trkpt lat="43.82946" lon="6.96095">
        <ele>1427.69507</ele>
        <time>2012-08-15T14:20:16+02:00</time>
      </trkpt>
      <trkpt lat="43.82948" lon="6.96082">
        <ele>1426.73389</ele>
        <time>2012-08-15T14:20:18+02:00</time>
      </trkpt>
      <trkpt lat="43.82957" lon="6.96052">
        <ele>1430.09839</ele>
        <time>2012-08-15T14:20:23+02:00</time>
      </trkpt>
      <trkpt lat="43.8296" lon="6.9605">
        <ele>1428.17578</ele>
        <time>2012-08-15T14:20:25+02:00</time>
      </trkpt>
      <trkpt lat="43.82957" lon="6.96068">
        <ele>1421.44653</ele>
        <time>2012-08-15T14:20:28+02:00</time>
      </trkpt>
      <trkpt lat="43.82969" lon="6.96106">
        <ele>1408.94946</ele>
        <time>2012-08-15T14:20:32+02:00</time>
      </trkpt>
      <trkpt lat="43.82972" lon="6.9612">
        <ele>1407.02686</ele>
        <time>2012-08-15T14:20:35+02:00</time>
      </trkpt>
      <trkpt lat="43.82965" lon="6.96151">
        <ele>1410.39136</ele>
        <time>2012-08-15T14:20:41+02:00</time>
      </trkpt>
      <trkpt lat="43.82957" lon="6.96164">
        <ele>1411.35278</ele>
        <time>2012-08-15T14:20:43+02:00</time>
      </trkpt>
      <trkpt lat="43.82947" lon="6.9619">
        <ele>1412.31396</ele>
        <time>2012-08-15T14:20:47+02:00</time>
      </trkpt>
      <trkpt lat="43.82948" lon="6.96213">
        <ele>1411.35278</ele>
        <time>2012-08-15T14:20:51+02:00</time>
      </trkpt>
      <trkpt lat="43.82943" lon="6.96228">
        <ele>1412.31396</ele>
        <time>2012-08-15T14:20:54+02:00</time>
      </trkpt>
      <trkpt lat="43.82945" lon="6.96247">
        <ele>1412.79468</ele>
        <time>2012-08-15T14:20:57+02:00</time>
      </trkpt>
      <trkpt lat="43.82956" lon="6.96269">
        <ele>1413.27539</ele>
        <time>2012-08-15T14:21:01+02:00</time>
      </trkpt>
      <trkpt lat="43.82966" lon="6.96279">
        <ele>1415.198</ele>
        <time>2012-08-15T14:21:04+02:00</time>
      </trkpt>
      <trkpt lat="43.82974" lon="6.96283">
        <ele>1415.198</ele>
        <time>2012-08-15T14:21:06+02:00</time>
      </trkpt>
      <trkpt lat="43.82983" lon="6.96285">
        <ele>1414.71729</ele>
        <time>2012-08-15T14:21:08+02:00</time>
      </trkpt>
      <trkpt lat="43.82997" lon="6.96305">
        <ele>1413.27539</ele>
        <time>2012-08-15T14:21:12+02:00</time>
      </trkpt>
      <trkpt lat="43.83002" lon="6.96301">
        <ele>1411.8335</ele>
        <time>2012-08-15T14:21:14+02:00</time>
      </trkpt>
      <trkpt lat="43.83001" lon="6.96285">
        <ele>1410.39136</ele>
        <time>2012-08-15T14:21:17+02:00</time>
      </trkpt>
      <trkpt lat="43.83008" lon="6.96286">
        <ele>1409.43018</ele>
        <time>2012-08-15T14:21:19+02:00</time>
      </trkpt>
      <trkpt lat="43.83014" lon="6.96295">
        <ele>1407.50757</ele>
        <time>2012-08-15T14:21:21+02:00</time>
      </trkpt>
      <trkpt lat="43.83024" lon="6.96335">
        <ele>1404.62354</ele>
        <time>2012-08-15T14:21:26+02:00</time>
      </trkpt>
      <trkpt lat="43.83027" lon="6.96362">
        <ele>1402.70068</ele>
        <time>2012-08-15T14:21:29+02:00</time>
      </trkpt>
      <trkpt lat="43.83024" lon="6.96395">
        <ele>1402.21997</ele>
        <time>2012-08-15T14:21:33+02:00</time>
      </trkpt>
      <trkpt lat="43.83024" lon="6.96402">
        <ele>1401.7395</ele>
        <time>2012-08-15T14:21:34+02:00</time>
      </trkpt>
      <trkpt lat="43.83015" lon="6.96458">
        <ele>1400.29761</ele>
        <time>2012-08-15T14:21:41+02:00</time>
      </trkpt>
      <trkpt lat="43.83013" lon="6.96465">
        <ele>1400.29761</ele>
        <time>2012-08-15T14:21:42+02:00</time>
      </trkpt>
      <trkpt lat="43.83009" lon="6.96482">
        <ele>1399.81689</ele>
        <time>2012-08-15T14:21:44+02:00</time>
      </trkpt>
      <trkpt lat="43.83005" lon="6.96514">
        <ele>1400.29761</ele>
        <time>2012-08-15T14:21:48+02:00</time>
      </trkpt>
      <trkpt lat="43.82998" lon="6.96542">
        <ele>1400.29761</ele>
        <time>2012-08-15T14:21:53+02:00</time>
      </trkpt>
      <trkpt lat="43.82983" lon="6.96567">
        <ele>1402.21997</ele>
        <time>2012-08-15T14:21:59+02:00</time>
      </trkpt>
      <trkpt lat="43.82967" lon="6.96581">
        <ele>1403.1814</ele>
        <time>2012-08-15T14:22:05+02:00</time>
      </trkpt>
      <trkpt lat="43.82958" lon="6.96596">
        <ele>1403.66211</ele>
        <time>2012-08-15T14:22:09+02:00</time>
      </trkpt>
      <trkpt lat="43.82947" lon="6.96623">
        <ele>1404.14307</ele>
        <time>2012-08-15T14:22:15+02:00</time>
      </trkpt>
      <trkpt lat="43.8295" lon="6.96636">
        <ele>1403.66211</ele>
        <time>2012-08-15T14:22:17+02:00</time>
      </trkpt>
      <trkpt lat="43.82951" lon="6.96656">
        <ele>1404.14307</ele>
        <time>2012-08-15T14:22:21+02:00</time>
      </trkpt>
      <trkpt lat="43.82947" lon="6.96655">
        <ele>1404.62354</ele>
        <time>2012-08-15T14:22:24+02:00</time>
      </trkpt>
      <trkpt lat="43.82943" lon="6.96652">
        <ele>1405.10425</ele>
        <time>2012-08-15T14:22:26+02:00</time>
      </trkpt>
      <trkpt lat="43.82926" lon="6.96641">
        <ele>1406.06543</ele>
        <time>2012-08-15T14:22:33+02:00</time>
      </trkpt>
      <trkpt lat="43.82913" lon="6.96641">
        <ele>1407.50757</ele>
        <time>2012-08-15T14:22:38+02:00</time>
      </trkpt>
      <trkpt lat="43.82889" lon="6.96642">
        <ele>1409.91064</ele>
        <time>2012-08-15T14:22:47+02:00</time>
      </trkpt>
      <trkpt lat="43.82878" lon="6.96641">
        <ele>1410.87207</ele>
        <time>2012-08-15T14:22:51+02:00</time>
      </trkpt>
      <trkpt lat="43.82861" lon="6.96638">
        <ele>1412.31396</ele>
        <time>2012-08-15T14:22:58+02:00</time>
      </trkpt>
      <trkpt lat="43.8286" lon="6.96636">
        <ele>1412.31396</ele>
        <time>2012-08-15T14:22:59+02:00</time>
      </trkpt>
      <trkpt lat="43.82863" lon="6.96626">
        <ele>1413.27539</ele>
        <time>2012-08-15T14:23:04+02:00</time>
      </trkpt>
      <trkpt lat="43.82871" lon="6.96623">
        <ele>1414.23657</ele>
        <time>2012-08-15T14:23:08+02:00</time>
      </trkpt>
      <trkpt lat="43.82884" lon="6.96613">
        <ele>1414.71729</ele>
        <time>2012-08-15T14:23:15+02:00</time>
      </trkpt>
      <trkpt lat="43.82888" lon="6.9661">
        <ele>1414.23657</ele>
        <time>2012-08-15T14:23:17+02:00</time>
      </trkpt>
      <trkpt lat="43.82885" lon="6.96605">
        <ele>1414.71729</ele>
        <time>2012-08-15T14:23:22+02:00</time>
      </trkpt>
      <trkpt lat="43.8288" lon="6.96606">
        <ele>1415.67871</ele>
        <time>2012-08-15T14:23:25+02:00</time>
      </trkpt>
      <trkpt lat="43.82878" lon="6.966">
        <ele>1416.63989</ele>
        <time>2012-08-15T14:23:29+02:00</time>
      </trkpt>
      <trkpt lat="43.82882" lon="6.96599">
        <ele>1416.63989</ele>
        <time>2012-08-15T14:23:31+02:00</time>
      </trkpt>
      <trkpt lat="43.82891" lon="6.96597">
        <ele>1416.63989</ele>
        <time>2012-08-15T14:23:34+02:00</time>
      </trkpt>
      <trkpt lat="43.82898" lon="6.96607">
        <ele>1414.23657</ele>
        <time>2012-08-15T14:23:38+02:00</time>
      </trkpt>
      <trkpt lat="43.82912" lon="6.96618">
        <ele>1412.31396</ele>
        <time>2012-08-15T14:23:41+02:00</time>
      </trkpt>
      <trkpt lat="43.82929" lon="6.96627">
        <ele>1411.35278</ele>
        <time>2012-08-15T14:23:45+02:00</time>
      </trkpt>
      <trkpt lat="43.82952" lon="6.96651">
        <ele>1407.50757</ele>
        <time>2012-08-15T14:23:51+02:00</time>
      </trkpt>
      <trkpt lat="43.82946" lon="6.96652">
        <ele>1406.54614</ele>
        <time>2012-08-15T14:23:54+02:00</time>
      </trkpt>
      <trkpt lat="43.82943" lon="6.9665">
        <ele>1406.54614</ele>
        <time>2012-08-15T14:23:55+02:00</time>
      </trkpt>
      <trkpt lat="43.8292" lon="6.9664">
        <ele>1407.50757</ele>
        <time>2012-08-15T14:24:03+02:00</time>
      </trkpt>
      <trkpt lat="43.82896" lon="6.96641">
        <ele>1409.91064</ele>
        <time>2012-08-15T14:24:11+02:00</time>
      </trkpt>
      <trkpt lat="43.82877" lon="6.96643">
        <ele>1411.35278</ele>
        <time>2012-08-15T14:24:18+02:00</time>
      </trkpt>
      <trkpt lat="43.8286" lon="6.96643">
        <ele>1411.8335</ele>
        <time>2012-08-15T14:24:24+02:00</time>
      </trkpt>
      <trkpt lat="43.82858" lon="6.9664">
        <ele>1411.8335</ele>
        <time>2012-08-15T14:24:25+02:00</time>
      </trkpt>
      <trkpt lat="43.8286" lon="6.96629">
        <ele>1412.31396</ele>
        <time>2012-08-15T14:24:29+02:00</time>
      </trkpt>
      <trkpt lat="43.82871" lon="6.96624">
        <ele>1413.27539</ele>
        <time>2012-08-15T14:24:34+02:00</time>
      </trkpt>
      <trkpt lat="43.82884" lon="6.96613">
        <ele>1413.75586</ele>
        <time>2012-08-15T14:24:41+02:00</time>
      </trkpt>
      <trkpt lat="43.82888" lon="6.96609">
        <ele>1414.23657</ele>
        <time>2012-08-15T14:24:43+02:00</time>
      </trkpt>
      <trkpt lat="43.82893" lon="6.96608">
        <ele>1413.27539</ele>
        <time>2012-08-15T14:24:48+02:00</time>
      </trkpt>
      <trkpt lat="43.82891" lon="6.96614">
        <ele>1413.27539</ele>
        <time>2012-08-15T14:24:50+02:00</time>
      </trkpt>
      <trkpt lat="43.82886" lon="6.96618">
        <ele>1413.27539</ele>
        <time>2012-08-15T14:24:52+02:00</time>
      </trkpt>
      <trkpt lat="43.82889" lon="6.96623">
        <ele>1412.79468</ele>
        <time>2012-08-15T14:24:56+02:00</time>
      </trkpt>
      <trkpt lat="43.82903" lon="6.96623">
        <ele>1410.87207</ele>
        <time>2012-08-15T14:25:00+02:00</time>
      </trkpt>
      <trkpt lat="43.8292" lon="6.96625">
        <ele>1409.91064</ele>
        <time>2012-08-15T14:25:03+02:00</time>
      </trkpt>
      <trkpt lat="43.82922" lon="6.96638">
        <ele>1407.98828</ele>
        <time>2012-08-15T14:25:07+02:00</time>
      </trkpt>
      <trkpt lat="43.82912" lon="6.96641">
        <ele>1408.46875</ele>
        <time>2012-08-15T14:25:10+02:00</time>
      </trkpt>
      <trkpt lat="43.82891" lon="6.96645">
        <ele>1409.91064</ele>
        <time>2012-08-15T14:25:17+02:00</time>
      </trkpt>
      <trkpt lat="43.82876" lon="6.96645">
        <ele>1410.39136</ele>
        <time>2012-08-15T14:25:23+02:00</time>
      </trkpt>
      <trkpt lat="43.8286" lon="6.96639">
        <ele>1410.87207</ele>
        <time>2012-08-15T14:25:30+02:00</time>
      </trkpt>
      <trkpt lat="43.82862" lon="6.96629">
        <ele>1411.8335</ele>
        <time>2012-08-15T14:25:34+02:00</time>
      </trkpt>
      <trkpt lat="43.82879" lon="6.96619">
        <ele>1413.75586</ele>
        <time>2012-08-15T14:25:43+02:00</time>
      </trkpt>
      <trkpt lat="43.82887" lon="6.96612">
        <ele>1414.23657</ele>
        <time>2012-08-15T14:25:47+02:00</time>
      </trkpt>
      <trkpt lat="43.82886" lon="6.96606">
        <ele>1414.71729</ele>
        <time>2012-08-15T14:25:52+02:00</time>
      </trkpt>
      <trkpt lat="43.8288" lon="6.96607">
        <ele>1416.15918</ele>
        <time>2012-08-15T14:25:55+02:00</time>
      </trkpt>
      <trkpt lat="43.82878" lon="6.96601">
        <ele>1417.12061</ele>
        <time>2012-08-15T14:25:59+02:00</time>
      </trkpt>
      <trkpt lat="43.82881" lon="6.96598">
        <ele>1417.12061</ele>
        <time>2012-08-15T14:26:01+02:00</time>
      </trkpt>
      <trkpt lat="43.82891" lon="6.96586">
        <ele>1418.08179</ele>
        <time>2012-08-15T14:26:08+02:00</time>
      </trkpt>
      <trkpt lat="43.82897" lon="6.96596">
        <ele>1417.60107</ele>
        <time>2012-08-15T14:26:13+02:00</time>
      </trkpt>
      <trkpt lat="43.82903" lon="6.96612">
        <ele>1414.23657</ele>
        <time>2012-08-15T14:26:16+02:00</time>
      </trkpt>
      <trkpt lat="43.82915" lon="6.96615">
        <ele>1412.31396</ele>
        <time>2012-08-15T14:26:19+02:00</time>
      </trkpt>
      <trkpt lat="43.82922" lon="6.96619">
        <ele>1410.87207</ele>
        <time>2012-08-15T14:26:22+02:00</time>
      </trkpt>
      <trkpt lat="43.82923" lon="6.96619">
        <ele>1410.87207</ele>
        <time>2012-08-15T14:26:32+02:00</time>
      </trkpt>
      <trkpt lat="43.82926" lon="6.9662">
        <ele>1413.27539</ele>
        <time>2012-08-15T14:27:05+02:00</time>
      </trkpt>
      <trkpt lat="43.82934" lon="6.96629">
        <ele>1411.35278</ele>
        <time>2012-08-15T14:27:09+02:00</time>
      </trkpt>
      <trkpt lat="43.82946" lon="6.96643">
        <ele>1409.43018</ele>
        <time>2012-08-15T14:27:12+02:00</time>
      </trkpt>
      <trkpt lat="43.82956" lon="6.96657">
        <ele>1407.50757</ele>
        <time>2012-08-15T14:27:15+02:00</time>
      </trkpt>
      <trkpt lat="43.82958" lon="6.96661">
        <ele>1407.50757</ele>
        <time>2012-08-15T14:27:16+02:00</time>
      </trkpt>
      <trkpt lat="43.82969" lon="6.9668">
        <ele>1407.02686</ele>
        <time>2012-08-15T14:27:22+02:00</time>
      </trkpt>
      <trkpt lat="43.82973" lon="6.96687">
        <ele>1406.54614</ele>
        <time>2012-08-15T14:27:24+02:00</time>
      </trkpt>
    </trkseg>
  </trk>
</gpx>